Time,TemperatureF,DewpointF,PressureIn,WindDirection,WindDirectionDegrees,WindSpeedMPH,WindSpeedGustMPH,Humidity,HourlyPrecipIn,Conditions,Clouds,dailyrainin,SoftwareType,DateUTC
2013-01-08 00:01:00,38.5,22.8,29.58,West,270,2.5,4.5,53,0.00,,,0.00,WUHU216HW,2013-01-08 07:01:00,
2013-01-08 00:03:00,38.7,23.0,29.58,WSW,248,2.5,4.5,53,0.00,,,0.00,WUHU216HW,2013-01-08 07:03:00,
2013-01-08 00:05:00,38.9,23.1,29.57,West,270,4.0,4.5,53,0.00,,,0.00,WUHU216HW,2013-01-08 07:05:00,
2013-01-08 00:06:00,38.9,23.1,29.57,West,270,3.6,4.5,53,0.00,,,0.00,WUHU216HW,2013-01-08 07:06:00,
2013-01-08 00:08:00,38.9,23.1,29.58,WSW,248,2.0,4.0,53,0.00,,,0.00,WUHU216HW,2013-01-08 07:08:00,
2013-01-08 00:10:00,38.9,23.1,29.57,West,270,1.8,4.0,53,0.00,,,0.00,WUHU216HW,2013-01-08 07:10:00,
2013-01-08 00:11:00,38.9,23.1,29.58,WNW,293,2.9,4.0,53,0.00,,,0.00,WUHU216HW,2013-01-08 07:11:00,
2013-01-08 00:13:00,38.9,22.7,29.58,WNW,293,2.7,4.0,52,0.00,,,0.00,WUHU216HW,2013-01-08 07:13:00,
2013-01-08 00:15:00,38.9,22.7,29.58,West,270,4.3,4.3,52,0.00,,,0.00,WUHU216HW,2013-01-08 07:15:00,
2013-01-08 00:16:00,38.7,22.5,29.58,WNW,293,2.9,4.3,52,0.00,,,0.00,WUHU216HW,2013-01-08 07:16:00,
2013-01-08 00:18:00,38.5,22.3,29.57,WSW,248,1.1,4.3,52,0.00,,,0.00,WUHU216HW,2013-01-08 07:18:00,
2013-01-08 00:19:00,38.5,22.3,29.57,WSW,248,1.1,4.3,52,0.00,,,0.00,WUHU216HW,2013-01-08 07:19:00,
2013-01-08 00:20:00,38.5,22.3,29.58,WSW,248,1.1,4.3,52,0.00,,,0.00,WUHU216HW,2013-01-08 07:20:00,
2013-01-08 00:21:00,38.5,22.3,29.58,NW,315,2.0,4.3,52,0.00,,,0.00,WUHU216HW,2013-01-08 07:21:00,
2013-01-08 00:23:00,38.5,22.3,29.58,WSW,248,0.7,4.3,52,0.00,,,0.00,WUHU216HW,2013-01-08 07:23:00,
2013-01-08 00:24:00,38.5,22.3,29.58,WSW,248,0.7,4.3,52,0.00,,,0.00,WUHU216HW,2013-01-08 07:24:00,
2013-01-08 00:25:00,38.5,22.3,29.58,West,270,1.8,2.9,52,0.00,,,0.00,WUHU216HW,2013-01-08 07:25:00,
2013-01-08 00:27:00,38.5,22.3,29.58,WSW,248,4.7,4.7,52,0.00,,,0.00,WUHU216HW,2013-01-08 07:27:00,
2013-01-08 00:29:00,38.5,22.3,29.58,WSW,248,0.4,4.7,52,0.00,,,0.00,WUHU216HW,2013-01-08 07:29:00,
2013-01-08 00:30:00,38.5,22.3,29.58,West,270,2.0,4.7,52,0.00,,,0.00,WUHU216HW,2013-01-08 07:30:00,
2013-01-08 00:32:00,38.5,22.3,29.58,WSW,248,2.2,4.7,52,0.00,,,0.00,WUHU216HW,2013-01-08 07:32:00,
2013-01-08 00:34:00,38.5,22.3,29.58,WSW,248,4.0,4.7,52,0.00,,,0.00,WUHU216HW,2013-01-08 07:34:00,
2013-01-08 00:35:00,38.5,22.8,29.58,NW,315,1.6,4.7,53,0.00,,,0.00,WUHU216HW,2013-01-08 07:35:00,
2013-01-08 00:37:00,38.7,23.0,29.58,WNW,293,5.8,5.8,53,0.00,,,0.00,WUHU216HW,2013-01-08 07:37:00,
2013-01-08 00:39:00,38.7,22.5,29.58,WNW,293,5.6,5.8,52,0.00,,,0.00,WUHU216HW,2013-01-08 07:39:00,
2013-01-08 00:40:00,38.9,22.7,29.58,WSW,248,2.2,5.8,52,0.00,,,0.00,WUHU216HW,2013-01-08 07:40:00,
2013-01-08 00:42:00,39.1,22.9,29.58,WSW,248,4.0,5.8,52,0.00,,,0.00,WUHU216HW,2013-01-08 07:42:00,
2013-01-08 00:44:00,39.1,22.9,29.58,NW,315,3.4,5.8,52,0.00,,,0.00,WUHU216HW,2013-01-08 07:44:00,
2013-01-08 00:45:00,39.2,23.1,29.58,West,270,5.4,5.8,52,0.00,,,0.00,WUHU216HW,2013-01-08 07:45:00,
2013-01-08 00:47:00,39.2,23.1,29.58,NW,315,7.2,7.2,52,0.00,,,0.00,WUHU216HW,2013-01-08 07:47:00,
2013-01-08 00:49:00,39.2,23.1,29.58,WSW,248,5.8,7.2,52,0.00,,,0.00,WUHU216HW,2013-01-08 07:49:00,
2013-01-08 00:50:00,39.2,23.1,29.58,NW,315,4.0,7.2,52,0.00,,,0.00,WUHU216HW,2013-01-08 07:50:00,
2013-01-08 00:52:00,39.2,23.1,29.59,West,270,10.3,10.3,52,0.00,,,0.00,WUHU216HW,2013-01-08 07:52:00,
2013-01-08 00:54:00,39.4,23.1,29.58,WNW,293,4.0,10.3,52,0.00,,,0.00,WUHU216HW,2013-01-08 07:54:00,
2013-01-08 00:55:00,39.6,23.3,29.59,WNW,293,4.9,10.3,52,0.00,,,0.00,WUHU216HW,2013-01-08 07:55:00,
2013-01-08 00:57:00,39.8,23.5,29.59,NW,315,4.0,10.3,52,0.00,,,0.00,WUHU216HW,2013-01-08 07:57:00,
2013-01-08 00:59:00,40.0,23.2,29.59,WNW,293,4.0,10.3,51,0.00,,,0.00,WUHU216HW,2013-01-08 07:59:00,
2013-01-08 01:00:00,40.0,23.2,29.59,WNW,293,4.0,10.3,51,0.00,,,0.00,WUHU216HW,2013-01-08 08:00:00,
2013-01-08 01:01:00,40.0,23.2,29.59,West,270,7.2,10.3,51,0.00,,,0.00,WUHU216HW,2013-01-08 08:01:00,
2013-01-08 01:03:00,40.0,23.2,29.59,WSW,248,5.8,7.2,51,0.00,,,0.00,WUHU216HW,2013-01-08 08:03:00,
2013-01-08 01:04:00,40.0,23.2,29.60,WNW,293,4.9,7.2,51,0.00,,,0.00,WUHU216HW,2013-01-08 08:04:00,
2013-01-08 01:05:00,40.0,23.2,29.60,West,270,5.8,7.2,51,0.00,,,0.00,WUHU216HW,2013-01-08 08:05:00,
2013-01-08 01:06:00,40.0,23.2,29.60,West,270,4.0,7.2,51,0.00,,,0.00,WUHU216HW,2013-01-08 08:06:00,
2013-01-08 01:08:00,40.0,22.8,29.60,WNW,293,4.7,7.2,50,0.00,,,0.00,WUHU216HW,2013-01-08 08:08:00,
2013-01-08 01:09:00,40.0,22.8,29.60,NW,315,5.4,7.2,50,0.00,,,0.00,WUHU216HW,2013-01-08 08:09:00,
2013-01-08 01:10:00,40.0,22.8,29.60,NNW,338,5.4,7.2,50,0.00,,,0.00,WUHU216HW,2013-01-08 08:10:00,
2013-01-08 01:11:00,40.0,22.8,29.60,SW,225,7.2,7.2,50,0.00,,,0.00,WUHU216HW,2013-01-08 08:11:00,
2013-01-08 01:13:00,39.8,22.6,29.60,WNW,293,3.8,8.5,50,0.00,,,0.00,WUHU216HW,2013-01-08 08:13:00,
2013-01-08 01:14:00,39.8,22.6,29.60,WSW,248,4.3,8.5,50,0.00,,,0.00,WUHU216HW,2013-01-08 08:14:00,
2013-01-08 01:15:00,39.8,22.6,29.60,WNW,293,3.1,8.5,50,0.00,,,0.00,WUHU216HW,2013-01-08 08:15:00,
2013-01-08 01:16:00,39.8,22.6,29.60,WNW,293,3.8,8.5,50,0.00,,,0.00,WUHU216HW,2013-01-08 08:16:00,
2013-01-08 01:18:00,39.8,22.6,29.60,WNW,293,1.8,8.5,50,0.00,,,0.00,WUHU216HW,2013-01-08 08:18:00,
2013-01-08 01:19:00,39.8,22.6,29.60,West,270,5.4,8.5,50,0.00,,,0.00,WUHU216HW,2013-01-08 08:19:00,
2013-01-08 01:20:00,39.6,22.5,29.60,WSW,248,2.5,8.5,50,0.00,,,0.00,WUHU216HW,2013-01-08 08:20:00,
2013-01-08 01:21:00,39.6,22.5,29.60,WSW,248,2.5,8.5,50,0.00,,,0.00,WUHU216HW,2013-01-08 08:21:00,
2013-01-08 01:23:00,39.6,22.5,29.60,SW,225,1.6,5.4,50,0.00,,,0.00,WUHU216HW,2013-01-08 08:23:00,
2013-01-08 01:25:00,39.4,22.3,29.60,West,270,2.5,5.4,50,0.00,,,0.00,WUHU216HW,2013-01-08 08:25:00,
2013-01-08 01:26:00,39.4,22.3,29.60,West,270,4.0,5.4,50,0.00,,,0.00,WUHU216HW,2013-01-08 08:26:00,
2013-01-08 01:28:00,39.2,22.1,29.60,SW,225,1.1,5.4,50,0.00,,,0.00,WUHU216HW,2013-01-08 08:28:00,
2013-01-08 01:30:00,39.2,22.1,29.60,West,270,3.1,4.0,50,0.00,,,0.00,WUHU216HW,2013-01-08 08:30:00,
2013-01-08 01:31:00,39.2,22.1,29.60,WNW,293,1.6,4.0,50,0.00,,,0.00,WUHU216HW,2013-01-08 08:31:00,
2013-01-08 01:33:00,39.1,22.0,29.60,West,270,3.1,4.0,50,0.00,,,0.00,WUHU216HW,2013-01-08 08:33:00,
2013-01-08 01:35:00,39.1,22.0,29.60,WNW,293,2.5,4.0,50,0.00,,,0.00,WUHU216HW,2013-01-08 08:35:00,
2013-01-08 01:36:00,39.1,22.0,29.60,WSW,248,4.9,4.9,50,0.00,,,0.00,WUHU216HW,2013-01-08 08:36:00,
2013-01-08 01:38:00,38.9,21.8,29.60,WSW,248,1.6,4.9,50,0.00,,,0.00,WUHU216HW,2013-01-08 08:38:00,
2013-01-08 01:40:00,38.7,21.7,29.60,West,270,4.7,4.9,50,0.00,,,0.00,WUHU216HW,2013-01-08 08:40:00,
2013-01-08 01:41:00,38.7,21.7,29.60,WSW,248,2.0,4.9,50,0.00,,,0.00,WUHU216HW,2013-01-08 08:41:00,
2013-01-08 01:44:00,38.5,21.5,29.60,NNW,338,2.7,4.9,50,0.00,,,0.00,WUHU216HW,2013-01-08 08:44:00,
2013-01-08 01:45:00,38.5,21.5,29.60,West,270,4.5,4.9,50,0.00,,,0.00,WUHU216HW,2013-01-08 08:45:00,
2013-01-08 01:46:00,38.5,21.5,29.60,WSW,248,4.5,4.7,50,0.00,,,0.00,WUHU216HW,2013-01-08 08:46:00,
2013-01-08 01:49:00,38.5,21.5,29.60,West,270,3.6,6.3,50,0.00,,,0.00,WUHU216HW,2013-01-08 08:49:00,
2013-01-08 01:51:00,38.3,21.3,29.60,WSW,248,3.8,6.3,50,0.00,,,0.00,WUHU216HW,2013-01-08 08:51:00,
2013-01-08 01:55:00,38.2,21.2,29.60,West,270,4.7,6.9,50,0.00,,,0.00,WUHU216HW,2013-01-08 08:55:00,
2013-01-08 01:56:00,38.2,21.2,29.60,West,270,4.7,6.9,50,0.00,,,0.00,WUHU216HW,2013-01-08 08:56:00,
2013-01-08 02:00:00,37.8,20.9,29.60,West,270,1.3,6.9,50,0.00,,,0.00,WUHU216HW,2013-01-08 09:00:00,
2013-01-08 02:01:00,37.8,20.9,29.60,SW,225,1.8,6.9,50,0.00,,,0.00,WUHU216HW,2013-01-08 09:01:00,
2013-01-08 02:02:00,37.8,21.2,29.60,West,270,2.7,4.7,51,0.00,,,0.00,WUHU216HW,2013-01-08 09:02:00,
2013-01-08 02:05:00,37.6,21.2,29.61,WSW,248,1.8,4.0,51,0.00,,,0.00,WUHU216HW,2013-01-08 09:05:00,
2013-01-08 02:06:00,37.6,21.2,29.61,WNW,293,2.7,4.0,51,0.00,,,0.00,WUHU216HW,2013-01-08 09:06:00,
2013-01-08 02:07:00,37.4,21.0,29.60,West,270,2.5,4.0,51,0.00,,,0.00,WUHU216HW,2013-01-08 09:07:00,
2013-01-08 02:10:00,37.3,20.8,29.60,WSW,248,2.7,4.3,51,0.00,,,0.00,WUHU216HW,2013-01-08 09:10:00,
2013-01-08 02:11:00,37.3,20.8,29.60,West,270,1.6,4.3,51,0.00,,,0.00,WUHU216HW,2013-01-08 09:11:00,
2013-01-08 02:13:00,37.3,20.8,29.60,West,270,1.8,4.3,51,0.00,,,0.00,WUHU216HW,2013-01-08 09:13:00,
2013-01-08 02:16:00,37.1,20.6,29.61,WNW,293,2.0,4.3,51,0.00,,,0.00,WUHU216HW,2013-01-08 09:16:00,
2013-01-08 02:18:00,37.1,20.6,29.60,WSW,248,3.6,4.3,51,0.00,,,0.00,WUHU216HW,2013-01-08 09:18:00,
2013-01-08 02:21:00,36.9,20.9,29.60,West,270,2.5,3.6,52,0.00,,,0.00,WUHU216HW,2013-01-08 09:21:00,
2013-01-08 02:23:00,36.9,20.9,29.61,WNW,293,6.3,6.3,52,0.00,,,0.00,WUHU216HW,2013-01-08 09:23:00,
2013-01-08 02:26:00,36.9,20.9,29.61,West,270,3.8,6.3,52,0.00,,,0.00,WUHU216HW,2013-01-08 09:26:00,
2013-01-08 02:27:00,36.9,20.9,29.60,WSW,248,5.4,6.3,52,0.00,,,0.00,WUHU216HW,2013-01-08 09:27:00,
2013-01-08 02:28:00,36.9,20.9,29.61,WSW,248,5.4,6.3,52,0.00,,,0.00,WUHU216HW,2013-01-08 09:28:00,
2013-01-08 02:31:00,36.9,20.9,29.60,NW,315,3.8,6.3,52,0.00,,,0.00,WUHU216HW,2013-01-08 09:31:00,
2013-01-08 02:32:00,36.9,20.9,29.60,NW,315,3.8,6.3,52,0.00,,,0.00,WUHU216HW,2013-01-08 09:32:00,
2013-01-08 02:34:00,36.9,20.9,29.61,West,270,1.6,5.4,52,0.00,,,0.00,WUHU216HW,2013-01-08 09:34:00,
2013-01-08 02:37:00,36.9,20.9,29.60,WSW,248,2.2,5.4,52,0.00,,,0.00,WUHU216HW,2013-01-08 09:37:00,
2013-01-08 02:39:00,36.9,20.9,29.61,West,270,4.7,4.7,52,0.00,,,0.00,WUHU216HW,2013-01-08 09:39:00,
2013-01-08 02:42:00,36.9,20.9,29.61,NW,315,1.8,4.7,52,0.00,,,0.00,WUHU216HW,2013-01-08 09:42:00,
2013-01-08 02:44:00,36.9,20.9,29.61,WNW,293,2.7,4.7,52,0.00,,,0.00,WUHU216HW,2013-01-08 09:44:00,
2013-01-08 02:47:00,36.9,20.9,29.61,West,270,2.2,4.7,52,0.00,,,0.00,WUHU216HW,2013-01-08 09:47:00,
2013-01-08 02:48:00,36.9,20.9,29.61,WSW,248,2.0,4.7,52,0.00,,,0.00,WUHU216HW,2013-01-08 09:48:00,
2013-01-08 02:49:00,36.9,20.9,29.61,SW,225,1.8,4.0,52,0.00,,,0.00,WUHU216HW,2013-01-08 09:49:00,
2013-01-08 02:52:00,36.7,20.7,29.62,WSW,248,4.5,4.5,52,0.00,,,0.00,WUHU216HW,2013-01-08 09:52:00,
2013-01-08 02:53:00,36.7,20.7,29.61,WNW,293,5.4,5.4,52,0.00,,,0.00,WUHU216HW,2013-01-08 09:53:00,
2013-01-08 02:54:00,36.7,20.7,29.62,WNW,293,5.1,5.4,52,0.00,,,0.00,WUHU216HW,2013-01-08 09:54:00,
2013-01-08 02:57:00,36.9,20.9,29.61,NW,315,3.8,5.4,52,0.00,,,0.00,WUHU216HW,2013-01-08 09:57:00,
2013-01-08 02:58:00,36.9,20.9,29.61,WSW,248,1.1,5.4,52,0.00,,,0.00,WUHU216HW,2013-01-08 09:58:00,
2013-01-08 02:59:00,37.1,21.1,29.61,West,270,3.4,5.4,52,0.00,,,0.00,WUHU216HW,2013-01-08 09:59:00,
2013-01-08 03:02:00,37.1,21.1,29.62,NW,315,4.5,5.8,52,0.00,,,0.00,WUHU216HW,2013-01-08 10:02:00,
2013-01-08 03:03:00,37.1,21.1,29.62,West,270,4.3,5.8,52,0.00,,,0.00,WUHU216HW,2013-01-08 10:03:00,
2013-01-08 03:04:00,37.1,21.1,29.61,NW,315,3.4,5.8,52,0.00,,,0.00,WUHU216HW,2013-01-08 10:04:00,
2013-01-08 03:07:00,37.1,21.1,29.62,WNW,293,4.5,5.8,52,0.00,,,0.00,WUHU216HW,2013-01-08 10:07:00,
2013-01-08 03:08:00,37.1,21.1,29.61,NW,315,3.8,5.8,52,0.00,,,0.00,WUHU216HW,2013-01-08 10:08:00,
2013-01-08 03:09:00,37.1,21.1,29.62,West,270,8.5,8.5,52,0.00,,,0.00,WUHU216HW,2013-01-08 10:09:00,
2013-01-08 03:12:00,37.3,21.3,29.62,WNW,293,2.9,8.5,52,0.00,,,0.00,WUHU216HW,2013-01-08 10:12:00,
2013-01-08 03:13:00,37.3,21.3,29.62,WNW,293,4.5,8.5,52,0.00,,,0.00,WUHU216HW,2013-01-08 10:13:00,
2013-01-08 03:14:00,37.3,21.3,29.62,WNW,293,4.5,8.5,52,0.00,,,0.00,WUHU216HW,2013-01-08 10:14:00,
2013-01-08 03:17:00,37.4,21.4,29.61,WSW,248,5.4,8.5,52,0.00,,,0.00,WUHU216HW,2013-01-08 10:17:00,
2013-01-08 03:18:00,37.3,21.3,29.61,WNW,293,4.0,8.5,52,0.00,,,0.00,WUHU216HW,2013-01-08 10:18:00,
2013-01-08 03:19:00,37.3,21.3,29.61,WNW,293,4.0,8.5,52,0.00,,,0.00,WUHU216HW,2013-01-08 10:19:00,
2013-01-08 03:20:00,37.3,21.3,29.61,West,270,4.0,5.6,52,0.00,,,0.00,WUHU216HW,2013-01-08 10:20:00,
2013-01-08 03:22:00,37.4,21.4,29.61,NW,315,4.0,7.2,52,0.00,,,0.00,WUHU216HW,2013-01-08 10:22:00,
2013-01-08 03:24:00,37.4,21.4,29.61,West,270,4.7,7.2,52,0.00,,,0.00,WUHU216HW,2013-01-08 10:24:00,
2013-01-08 03:25:00,37.4,21.0,29.61,West,270,3.4,7.2,51,0.00,,,0.00,WUHU216HW,2013-01-08 10:25:00,
2013-01-08 03:27:00,37.4,21.4,29.61,South,180,2.2,7.2,52,0.00,,,0.00,WUHU216HW,2013-01-08 10:27:00,
2013-01-08 03:29:00,37.3,21.3,29.62,NW,315,3.6,7.2,52,0.00,,,0.00,WUHU216HW,2013-01-08 10:29:00,
2013-01-08 03:30:00,37.3,21.3,29.62,West,270,1.8,7.2,52,0.00,,,0.00,WUHU216HW,2013-01-08 10:30:00,
2013-01-08 03:32:00,37.1,21.1,29.62,West,270,2.7,5.6,52,0.00,,,0.00,WUHU216HW,2013-01-08 10:32:00,
2013-01-08 03:34:00,37.1,21.1,29.62,WNW,293,3.6,5.6,52,0.00,,,0.00,WUHU216HW,2013-01-08 10:34:00,
2013-01-08 03:35:00,37.1,21.1,29.62,NW,315,4.0,5.6,52,0.00,,,0.00,WUHU216HW,2013-01-08 10:35:00,
2013-01-08 03:37:00,37.1,21.1,29.62,NW,315,1.6,5.6,52,0.00,,,0.00,WUHU216HW,2013-01-08 10:37:00,
2013-01-08 03:39:00,37.1,21.1,29.62,WNW,293,3.1,5.6,52,0.00,,,0.00,WUHU216HW,2013-01-08 10:39:00,
2013-01-08 03:40:00,37.1,21.1,29.62,West,270,4.7,4.7,52,0.00,,,0.00,WUHU216HW,2013-01-08 10:40:00,
2013-01-08 03:42:00,37.1,21.1,29.62,West,270,3.6,4.7,52,0.00,,,0.00,WUHU216HW,2013-01-08 10:42:00,
2013-01-08 03:44:00,37.1,21.1,29.62,West,270,4.5,4.7,52,0.00,,,0.00,WUHU216HW,2013-01-08 10:44:00,
2013-01-08 03:45:00,37.1,21.1,29.62,West,270,2.9,4.7,52,0.00,,,0.00,WUHU216HW,2013-01-08 10:45:00,
2013-01-08 03:48:00,37.1,21.1,29.62,West,270,6.3,6.3,52,0.00,,,0.00,WUHU216HW,2013-01-08 10:48:00,
2013-01-08 03:49:00,37.1,21.1,29.62,West,270,6.3,6.3,52,0.00,,,0.00,WUHU216HW,2013-01-08 10:49:00,
2013-01-08 03:50:00,37.3,21.3,29.62,NW,315,2.5,6.3,52,0.00,,,0.00,WUHU216HW,2013-01-08 10:50:00,
2013-01-08 03:53:00,37.3,21.3,29.62,WNW,293,2.7,6.3,52,0.00,,,0.00,WUHU216HW,2013-01-08 10:53:00,
2013-01-08 03:54:00,37.3,21.3,29.62,WSW,248,2.5,6.3,52,0.00,,,0.00,WUHU216HW,2013-01-08 10:54:00,
2013-01-08 03:55:00,37.3,21.3,29.62,WNW,293,2.5,6.3,52,0.00,,,0.00,WUHU216HW,2013-01-08 10:55:00,
2013-01-08 03:58:00,37.3,21.3,29.63,WNW,293,4.0,4.0,52,0.00,,,0.00,WUHU216HW,2013-01-08 10:58:00,
2013-01-08 03:59:00,37.3,21.3,29.62,SE,135,3.4,4.0,52,0.00,,,0.00,WUHU216HW,2013-01-08 10:59:00,
2013-01-08 04:00:00,37.3,21.3,29.62,WSW,248,5.4,5.4,52,0.00,,,0.00,WUHU216HW,2013-01-08 11:00:00,
2013-01-08 04:03:00,37.3,21.3,29.63,NW,315,1.3,5.4,52,0.00,,,0.00,WUHU216HW,2013-01-08 11:03:00,
2013-01-08 04:04:00,37.3,21.3,29.62,WNW,293,2.9,5.4,52,0.00,,,0.00,WUHU216HW,2013-01-08 11:04:00,
2013-01-08 04:05:00,37.3,21.3,29.62,WNW,293,1.6,5.4,52,0.00,,,0.00,WUHU216HW,2013-01-08 11:05:00,
2013-01-08 04:08:00,37.1,21.1,29.63,North,0,5.4,6.3,52,0.00,,,0.00,WUHU216HW,2013-01-08 11:08:00,
2013-01-08 04:09:00,37.1,21.1,29.63,NNW,338,4.0,6.3,52,0.00,,,0.00,WUHU216HW,2013-01-08 11:09:00,
2013-01-08 04:10:00,37.1,21.1,29.63,North,0,4.7,6.3,52,0.00,,,0.00,WUHU216HW,2013-01-08 11:10:00,
2013-01-08 04:11:00,37.1,21.1,29.63,WNW,293,4.5,6.3,52,0.00,,,0.00,WUHU216HW,2013-01-08 11:11:00,
2013-01-08 04:13:00,37.1,21.1,29.63,North,0,6.7,6.7,52,0.00,,,0.00,WUHU216HW,2013-01-08 11:13:00,
2013-01-08 04:14:00,37.1,21.5,29.62,WNW,293,5.8,6.7,53,0.00,,,0.00,WUHU216HW,2013-01-08 11:14:00,
2013-01-08 04:15:00,36.9,21.3,29.63,NNW,338,5.8,6.7,53,0.00,,,0.00,WUHU216HW,2013-01-08 11:15:00,
2013-01-08 04:16:00,36.9,21.3,29.63,WNW,293,4.0,6.7,53,0.00,,,0.00,WUHU216HW,2013-01-08 11:16:00,
2013-01-08 04:18:00,36.9,21.3,29.63,WSW,248,6.3,6.7,53,0.00,,,0.00,WUHU216HW,2013-01-08 11:18:00,
2013-01-08 04:19:00,36.9,21.3,29.63,West,270,6.0,6.7,53,0.00,,,0.00,WUHU216HW,2013-01-08 11:19:00,
2013-01-08 04:20:00,36.7,21.2,29.62,West,270,6.9,6.9,53,0.00,,,0.00,WUHU216HW,2013-01-08 11:20:00,
2013-01-08 04:21:00,36.9,21.3,29.62,WNW,293,4.3,6.9,53,0.00,,,0.00,WUHU216HW,2013-01-08 11:21:00,
2013-01-08 04:23:00,36.9,21.3,29.63,North,0,2.5,6.9,53,0.00,,,0.00,WUHU216HW,2013-01-08 11:23:00,
2013-01-08 04:24:00,36.7,21.2,29.63,NW,315,4.0,6.9,53,0.00,,,0.00,WUHU216HW,2013-01-08 11:24:00,
2013-01-08 04:25:00,36.7,21.2,29.62,West,270,6.9,6.9,53,0.00,,,0.00,WUHU216HW,2013-01-08 11:25:00,
2013-01-08 04:26:00,36.7,21.2,29.63,WNW,293,5.1,6.9,53,0.00,,,0.00,WUHU216HW,2013-01-08 11:26:00,
2013-01-08 04:29:00,36.7,21.2,29.63,West,270,6.3,6.9,53,0.00,,,0.00,WUHU216HW,2013-01-08 11:29:00,
2013-01-08 04:31:00,36.7,21.2,29.63,WNW,293,7.6,7.6,53,0.00,,,0.00,WUHU216HW,2013-01-08 11:31:00,
2013-01-08 04:32:00,36.7,21.2,29.63,WNW,293,4.7,7.6,53,0.00,,,0.00,WUHU216HW,2013-01-08 11:32:00,
2013-01-08 04:34:00,36.7,21.2,29.63,NNW,338,4.7,7.6,53,0.00,,,0.00,WUHU216HW,2013-01-08 11:34:00,
2013-01-08 04:36:00,36.7,21.2,29.63,NW,315,6.0,7.6,53,0.00,,,0.00,WUHU216HW,2013-01-08 11:36:00,
2013-01-08 04:37:00,36.5,21.0,29.63,WNW,293,4.7,7.6,53,0.00,,,0.00,WUHU216HW,2013-01-08 11:37:00,
2013-01-08 04:39:00,36.5,21.0,29.63,North,0,3.4,7.6,53,0.00,,,0.00,WUHU216HW,2013-01-08 11:39:00,
2013-01-08 04:41:00,36.5,21.0,29.63,WNW,293,6.3,6.3,53,0.00,,,0.00,WUHU216HW,2013-01-08 11:41:00,
2013-01-08 04:43:00,36.5,21.0,29.63,NW,315,7.4,7.4,53,0.00,,,0.00,WUHU216HW,2013-01-08 11:43:00,
2013-01-08 04:44:00,36.5,21.4,29.63,WNW,293,4.0,7.4,54,0.00,,,0.00,WUHU216HW,2013-01-08 11:44:00,
2013-01-08 04:46:00,36.5,21.4,29.63,West,270,7.6,10.3,54,0.00,,,0.00,WUHU216HW,2013-01-08 11:46:00,
2013-01-08 04:48:00,36.5,21.4,29.63,NW,315,4.0,10.3,54,0.00,,,0.00,WUHU216HW,2013-01-08 11:48:00,
2013-01-08 04:49:00,36.5,21.4,29.63,West,270,2.7,10.3,54,0.00,,,0.00,WUHU216HW,2013-01-08 11:49:00,
2013-01-08 04:50:00,36.5,21.4,29.63,West,270,2.7,10.3,54,0.00,,,0.00,WUHU216HW,2013-01-08 11:50:00,
2013-01-08 04:51:00,36.4,21.2,29.63,NNW,338,2.7,10.3,54,0.00,,,0.00,WUHU216HW,2013-01-08 11:51:00,
2013-01-08 04:53:00,36.4,21.2,29.63,WNW,293,4.5,10.3,54,0.00,,,0.00,WUHU216HW,2013-01-08 11:53:00,
2013-01-08 04:54:00,36.4,21.2,29.63,NW,315,4.5,10.3,54,0.00,,,0.00,WUHU216HW,2013-01-08 11:54:00,
2013-01-08 04:55:00,36.4,21.2,29.64,NW,315,1.8,7.6,54,0.00,,,0.00,WUHU216HW,2013-01-08 11:55:00,
2013-01-08 04:56:00,36.4,21.2,29.64,NW,315,1.8,4.5,54,0.00,,,0.00,WUHU216HW,2013-01-08 11:56:00,
2013-01-08 04:58:00,36.4,21.2,29.63,West,270,4.5,6.3,54,0.00,,,0.00,WUHU216HW,2013-01-08 11:58:00,
2013-01-08 04:59:00,36.4,21.2,29.64,West,270,4.5,6.3,54,0.00,,,0.00,WUHU216HW,2013-01-08 11:59:00,
2013-01-08 05:00:00,36.4,21.7,29.63,West,270,6.7,6.7,55,0.00,,,0.00,WUHU216HW,2013-01-08 12:00:00,
2013-01-08 05:01:00,36.4,21.7,29.64,NW,315,3.4,6.7,55,0.00,,,0.00,WUHU216HW,2013-01-08 12:01:00,
2013-01-08 05:03:00,36.5,21.9,29.64,WNW,293,4.5,6.7,55,0.00,,,0.00,WUHU216HW,2013-01-08 12:03:00,
2013-01-08 05:04:00,36.7,22.1,29.64,NNE,23,3.1,6.7,55,0.00,,,0.00,WUHU216HW,2013-01-08 12:04:00,
2013-01-08 05:05:00,36.7,22.1,29.64,West,270,2.5,6.7,55,0.00,,,0.00,WUHU216HW,2013-01-08 12:05:00,
2013-01-08 05:06:00,36.9,22.2,29.64,WNW,293,3.6,6.7,55,0.00,,,0.00,WUHU216HW,2013-01-08 12:06:00,
2013-01-08 05:08:00,37.1,22.3,29.63,WNW,293,2.7,6.7,55,0.00,,,0.00,WUHU216HW,2013-01-08 12:08:00,
2013-01-08 05:09:00,37.1,22.3,29.63,WNW,293,3.8,6.7,55,0.00,,,0.00,WUHU216HW,2013-01-08 12:09:00,
2013-01-08 05:10:00,37.3,22.5,29.63,WNW,293,4.5,5.4,55,0.00,,,0.00,WUHU216HW,2013-01-08 12:10:00,
2013-01-08 05:11:00,37.3,22.5,29.64,NNW,338,4.5,5.4,55,0.00,,,0.00,WUHU216HW,2013-01-08 12:11:00,
2013-01-08 05:13:00,37.4,22.7,29.64,West,270,3.6,4.5,55,0.00,,,0.00,WUHU216HW,2013-01-08 12:13:00,
2013-01-08 05:14:00,37.6,22.9,29.64,West,270,3.6,4.5,55,0.00,,,0.00,WUHU216HW,2013-01-08 12:14:00,
2013-01-08 05:15:00,37.6,22.9,29.64,WNW,293,5.4,5.4,55,0.00,,,0.00,WUHU216HW,2013-01-08 12:15:00,
2013-01-08 05:16:00,37.8,23.1,29.64,West,270,2.9,5.4,55,0.00,,,0.00,WUHU216HW,2013-01-08 12:16:00,
2013-01-08 05:19:00,38.0,23.1,29.64,WNW,293,4.0,5.4,55,0.00,,,0.00,WUHU216HW,2013-01-08 12:19:00,
2013-01-08 05:20:00,38.0,22.8,29.64,West,270,5.4,6.7,54,0.00,,,0.00,WUHU216HW,2013-01-08 12:20:00,
2013-01-08 05:21:00,38.0,22.8,29.64,SSW,203,5.4,6.7,54,0.00,,,0.00,WUHU216HW,2013-01-08 12:21:00,
2013-01-08 05:24:00,37.8,22.6,29.63,West,270,3.4,6.7,54,0.00,,,0.00,WUHU216HW,2013-01-08 12:24:00,
2013-01-08 05:25:00,37.8,22.6,29.64,West,270,4.0,6.7,54,0.00,,,0.00,WUHU216HW,2013-01-08 12:25:00,
2013-01-08 05:26:00,37.8,22.6,29.64,NW,315,8.5,8.5,54,0.00,,,0.00,WUHU216HW,2013-01-08 12:26:00,
2013-01-08 05:29:00,37.8,23.1,29.64,NW,315,2.0,8.5,55,0.00,,,0.00,WUHU216HW,2013-01-08 12:29:00,
2013-01-08 05:30:00,38.0,23.1,29.64,West,270,6.7,8.5,55,0.00,,,0.00,WUHU216HW,2013-01-08 12:30:00,
2013-01-08 05:32:00,38.0,23.1,29.64,NW,315,4.3,8.5,55,0.00,,,0.00,WUHU216HW,2013-01-08 12:32:00,
2013-01-08 05:34:00,38.2,23.3,29.65,WNW,293,5.4,9.4,55,0.00,,,0.00,WUHU216HW,2013-01-08 12:34:00,
2013-01-08 05:35:00,38.5,23.7,29.65,WNW,293,4.0,9.4,55,0.00,,,0.00,WUHU216HW,2013-01-08 12:35:00,
2013-01-08 05:37:00,38.5,23.7,29.65,WNW,293,6.5,9.4,55,0.00,,,0.00,WUHU216HW,2013-01-08 12:37:00,
2013-01-08 05:39:00,38.7,23.9,29.65,NW,315,7.2,9.4,55,0.00,,,0.00,WUHU216HW,2013-01-08 12:39:00,
2013-01-08 05:40:00,38.7,23.9,29.65,NW,315,7.2,9.4,55,0.00,,,0.00,WUHU216HW,2013-01-08 12:40:00,
2013-01-08 05:42:00,38.9,23.6,29.65,WNW,293,3.8,7.2,54,0.00,,,0.00,WUHU216HW,2013-01-08 12:42:00,
2013-01-08 05:44:00,39.1,23.7,29.65,West,270,2.9,7.2,54,0.00,,,0.00,WUHU216HW,2013-01-08 12:44:00,
2013-01-08 05:45:00,39.1,23.7,29.65,West,270,3.4,7.2,54,0.00,,,0.00,WUHU216HW,2013-01-08 12:45:00,
2013-01-08 05:46:00,39.1,23.7,29.65,West,270,3.4,7.2,54,0.00,,,0.00,WUHU216HW,2013-01-08 12:46:00,
2013-01-08 05:47:00,39.1,23.7,29.65,WSW,248,4.0,7.2,54,0.00,,,0.00,WUHU216HW,2013-01-08 12:47:00,
2013-01-08 05:49:00,39.2,23.9,29.65,WNW,293,4.0,6.7,54,0.00,,,0.00,WUHU216HW,2013-01-08 12:49:00,
2013-01-08 05:50:00,39.1,23.7,29.65,WNW,293,9.2,9.2,54,0.00,,,0.00,WUHU216HW,2013-01-08 12:50:00,
2013-01-08 05:51:00,39.1,23.7,29.65,WNW,293,9.2,9.2,54,0.00,,,0.00,WUHU216HW,2013-01-08 12:51:00,
2013-01-08 05:52:00,39.1,23.7,29.66,WSW,248,4.3,9.2,54,0.00,,,0.00,WUHU216HW,2013-01-08 12:52:00,
2013-01-08 05:55:00,39.2,23.9,29.66,West,270,2.9,9.2,54,0.00,,,0.00,WUHU216HW,2013-01-08 12:55:00,
2013-01-08 05:56:00,39.2,23.9,29.66,West,270,2.2,9.2,54,0.00,,,0.00,WUHU216HW,2013-01-08 12:56:00,
2013-01-08 05:57:00,39.2,23.9,29.66,WNW,293,3.8,9.2,54,0.00,,,0.00,WUHU216HW,2013-01-08 12:57:00,
2013-01-08 06:00:00,39.2,23.9,29.66,WNW,293,4.3,9.2,54,0.00,,,0.00,WUHU216HW,2013-01-08 13:00:00,
2013-01-08 06:01:00,39.2,23.9,29.66,West,270,4.0,7.2,54,0.00,,,0.00,WUHU216HW,2013-01-08 13:01:00,
2013-01-08 06:02:00,39.2,23.9,29.66,WSW,248,3.4,7.2,54,0.00,,,0.00,WUHU216HW,2013-01-08 13:02:00,
2013-01-08 06:05:00,39.2,23.9,29.66,WSW,248,2.0,6.9,54,0.00,,,0.00,WUHU216HW,2013-01-08 13:05:00,
2013-01-08 06:06:00,39.2,23.9,29.66,SW,225,3.4,6.9,54,0.00,,,0.00,WUHU216HW,2013-01-08 13:06:00,
2013-01-08 06:08:00,39.2,23.9,29.66,WNW,293,3.1,6.9,54,0.00,,,0.00,WUHU216HW,2013-01-08 13:08:00,
2013-01-08 06:10:00,39.1,23.7,29.66,West,270,3.1,4.0,54,0.00,,,0.00,WUHU216HW,2013-01-08 13:10:00,
2013-01-08 06:11:00,39.1,23.7,29.66,West,270,3.1,4.0,54,0.00,,,0.00,WUHU216HW,2013-01-08 13:11:00,
2013-01-08 06:12:00,38.9,23.6,29.66,West,270,3.4,3.8,54,0.00,,,0.00,WUHU216HW,2013-01-08 13:12:00,
2013-01-08 06:13:00,38.9,23.6,29.66,West,270,3.4,3.4,54,0.00,,,0.00,WUHU216HW,2013-01-08 13:13:00,
2013-01-08 06:15:00,38.9,23.6,29.66,NW,315,2.0,3.4,54,0.00,,,0.00,WUHU216HW,2013-01-08 13:15:00,
2013-01-08 06:16:00,38.9,23.6,29.66,NW,315,2.0,3.4,54,0.00,,,0.00,WUHU216HW,2013-01-08 13:16:00,
2013-01-08 06:17:00,38.7,23.4,29.67,WNW,293,3.6,3.6,54,0.00,,,0.00,WUHU216HW,2013-01-08 13:17:00,
2013-01-08 06:18:00,38.7,23.4,29.67,WNW,293,3.6,3.6,54,0.00,,,0.00,WUHU216HW,2013-01-08 13:18:00,
2013-01-08 06:20:00,38.7,23.4,29.67,NW,315,3.4,3.6,54,0.00,,,0.00,WUHU216HW,2013-01-08 13:20:00,
2013-01-08 06:21:00,38.7,23.4,29.67,NW,315,3.4,3.6,54,0.00,,,0.00,WUHU216HW,2013-01-08 13:21:00,
2013-01-08 06:22:00,38.7,23.4,29.66,SW,225,1.1,3.6,54,0.00,,,0.00,WUHU216HW,2013-01-08 13:22:00,
2013-01-08 06:23:00,38.7,23.4,29.66,SW,225,1.1,3.6,54,0.00,,,0.00,WUHU216HW,2013-01-08 13:23:00,
2013-01-08 06:25:00,38.7,23.4,29.67,WSW,248,3.1,3.6,54,0.00,,,0.00,WUHU216HW,2013-01-08 13:25:00,
2013-01-08 06:26:00,38.7,23.4,29.67,WNW,293,2.9,3.6,54,0.00,,,0.00,WUHU216HW,2013-01-08 13:26:00,
2013-01-08 06:27:00,38.7,23.4,29.67,West,270,2.9,3.4,54,0.00,,,0.00,WUHU216HW,2013-01-08 13:27:00,
2013-01-08 06:28:00,38.7,23.4,29.67,West,270,5.1,5.1,54,0.00,,,0.00,WUHU216HW,2013-01-08 13:28:00,
2013-01-08 06:31:00,38.9,23.6,29.67,WSW,248,2.5,5.1,54,0.00,,,0.00,WUHU216HW,2013-01-08 13:31:00,
2013-01-08 06:32:00,38.9,23.6,29.67,WNW,293,4.0,5.1,54,0.00,,,0.00,WUHU216HW,2013-01-08 13:32:00,
2013-01-08 06:33:00,38.9,23.6,29.67,WSW,248,4.7,5.1,54,0.00,,,0.00,WUHU216HW,2013-01-08 13:33:00,
2013-01-08 06:36:00,39.1,23.7,29.67,NNW,338,5.6,5.6,54,0.00,,,0.00,WUHU216HW,2013-01-08 13:36:00,
2013-01-08 06:37:00,39.1,23.7,29.67,West,270,6.3,6.3,54,0.00,,,0.00,WUHU216HW,2013-01-08 13:37:00,
2013-01-08 06:38:00,39.2,23.9,29.67,SSW,203,4.0,6.3,54,0.00,,,0.00,WUHU216HW,2013-01-08 13:38:00,
2013-01-08 06:41:00,39.2,23.9,29.67,WNW,293,2.7,6.3,54,0.00,,,0.00,WUHU216HW,2013-01-08 13:41:00,
2013-01-08 06:42:00,39.2,23.9,29.67,West,270,4.3,6.3,54,0.00,,,0.00,WUHU216HW,2013-01-08 13:42:00,
2013-01-08 06:44:00,39.4,23.6,29.67,West,270,4.7,6.3,53,0.00,,,0.00,WUHU216HW,2013-01-08 13:44:00,
2013-01-08 06:46:00,39.4,23.6,29.67,West,270,5.8,6.3,53,0.00,,,0.00,WUHU216HW,2013-01-08 13:46:00,
2013-01-08 06:47:00,39.4,23.6,29.67,West,270,7.4,7.4,53,0.00,,,0.00,WUHU216HW,2013-01-08 13:47:00,
2013-01-08 06:49:00,39.6,23.8,29.68,WNW,293,2.5,7.4,53,0.00,,,0.00,WUHU216HW,2013-01-08 13:49:00,
2013-01-08 06:51:00,39.6,23.8,29.68,WNW,293,2.9,7.4,53,0.00,,,0.00,WUHU216HW,2013-01-08 13:51:00,
2013-01-08 06:52:00,39.6,23.8,29.68,West,270,3.6,7.4,53,0.00,,,0.00,WUHU216HW,2013-01-08 13:52:00,
2013-01-08 06:54:00,39.6,23.8,29.68,WSW,248,2.5,7.4,53,0.00,,,0.00,WUHU216HW,2013-01-08 13:54:00,
2013-01-08 06:56:00,39.4,23.6,29.68,NW,315,3.6,5.4,53,0.00,,,0.00,WUHU216HW,2013-01-08 13:56:00,
2013-01-08 06:57:00,39.4,23.6,29.68,NW,315,3.6,5.4,53,0.00,,,0.00,WUHU216HW,2013-01-08 13:57:00,
2013-01-08 06:59:00,39.6,23.8,29.67,WNW,293,3.1,5.4,53,0.00,,,0.00,WUHU216HW,2013-01-08 13:59:00,
2013-01-08 07:01:00,39.6,23.8,29.68,West,270,5.1,5.4,53,0.00,,,0.00,WUHU216HW,2013-01-08 14:01:00,
2013-01-08 07:02:00,39.4,23.6,29.67,SW,225,2.9,5.4,53,0.00,,,0.00,WUHU216HW,2013-01-08 14:02:00,
2013-01-08 07:03:00,39.4,23.6,29.68,West,270,1.3,5.4,53,0.00,,,0.00,WUHU216HW,2013-01-08 14:03:00,
2013-01-08 07:04:00,39.4,23.6,29.68,West,270,2.9,5.4,53,0.00,,,0.00,WUHU216HW,2013-01-08 14:04:00,
2013-01-08 07:06:00,39.4,23.6,29.68,WSW,248,3.6,5.1,53,0.00,,,0.00,WUHU216HW,2013-01-08 14:06:00,
2013-01-08 07:07:00,39.4,23.6,29.68,West,270,1.6,5.1,53,0.00,,,0.00,WUHU216HW,2013-01-08 14:07:00,
2013-01-08 07:08:00,39.4,23.6,29.68,West,270,1.8,5.1,53,0.00,,,0.00,WUHU216HW,2013-01-08 14:08:00,
2013-01-08 07:09:00,39.2,23.4,29.68,WSW,248,1.8,5.1,53,0.00,,,0.00,WUHU216HW,2013-01-08 14:09:00,
2013-01-08 07:12:00,39.2,23.4,29.68,West,270,3.1,4.7,53,0.00,,,0.00,WUHU216HW,2013-01-08 14:12:00,
2013-01-08 07:13:00,39.2,23.4,29.68,West,270,4.3,4.7,53,0.00,,,0.00,WUHU216HW,2013-01-08 14:13:00,
2013-01-08 07:14:00,39.2,23.4,29.69,West,270,1.8,4.7,53,0.00,,,0.00,WUHU216HW,2013-01-08 14:14:00,
2013-01-08 07:17:00,39.1,23.3,29.69,WSW,248,3.1,4.3,53,0.00,,,0.00,WUHU216HW,2013-01-08 14:17:00,
2013-01-08 07:19:00,38.9,23.1,29.69,West,270,2.9,4.3,53,0.00,,,0.00,WUHU216HW,2013-01-08 14:19:00,
2013-01-08 07:22:00,38.9,23.1,29.68,SW,225,2.2,4.3,53,0.00,,,0.00,WUHU216HW,2013-01-08 14:22:00,
2013-01-08 07:23:00,38.7,23.0,29.68,WSW,248,2.9,3.4,53,0.00,,,0.00,WUHU216HW,2013-01-08 14:23:00,
2013-01-08 07:24:00,38.7,23.0,29.68,WSW,248,2.5,3.4,53,0.00,,,0.00,WUHU216HW,2013-01-08 14:24:00,
2013-01-08 07:25:00,38.7,23.0,29.68,WSW,248,2.5,3.4,53,0.00,,,0.00,WUHU216HW,2013-01-08 14:25:00,
2013-01-08 07:27:00,38.5,22.8,29.69,West,270,2.2,4.7,53,0.00,,,0.00,WUHU216HW,2013-01-08 14:27:00,
2013-01-08 07:28:00,38.5,22.8,29.69,WSW,248,1.3,4.7,53,0.00,,,0.00,WUHU216HW,2013-01-08 14:28:00,
2013-01-08 07:29:00,38.5,22.8,29.69,WSW,248,4.0,4.7,53,0.00,,,0.00,WUHU216HW,2013-01-08 14:29:00,
2013-01-08 07:30:00,38.5,22.8,29.69,WSW,248,4.0,4.7,53,0.00,,,0.00,WUHU216HW,2013-01-08 14:30:00,
2013-01-08 07:32:00,38.3,22.6,29.69,West,270,1.8,4.7,53,0.00,,,0.00,WUHU216HW,2013-01-08 14:32:00,
2013-01-08 07:33:00,38.3,23.0,29.69,West,270,1.1,4.7,54,0.00,,,0.00,WUHU216HW,2013-01-08 14:33:00,
2013-01-08 07:34:00,38.3,23.0,29.69,West,270,2.0,4.7,54,0.00,,,0.00,WUHU216HW,2013-01-08 14:34:00,
2013-01-08 07:35:00,38.3,23.0,29.69,West,270,2.0,4.7,54,0.00,,,0.00,WUHU216HW,2013-01-08 14:35:00,
2013-01-08 07:38:00,38.2,22.9,29.69,WNW,293,0.4,4.7,54,0.00,,,0.00,WUHU216HW,2013-01-08 14:38:00,
2013-01-08 07:39:00,38.2,22.9,29.69,NNW,338,0.4,4.7,54,0.00,,,0.00,WUHU216HW,2013-01-08 14:39:00,
2013-01-08 07:40:00,38.2,22.9,29.69,NNW,338,0.4,4.7,54,0.00,,,0.00,WUHU216HW,2013-01-08 14:40:00,
2013-01-08 07:43:00,38.2,22.9,29.70,NNW,338,1.6,2.0,54,0.00,,,0.00,WUHU216HW,2013-01-08 14:43:00,
2013-01-08 07:44:00,38.0,22.8,29.70,West,270,0.9,2.0,54,0.00,,,0.00,WUHU216HW,2013-01-08 14:44:00,
2013-01-08 07:45:00,38.0,22.8,29.70,West,270,0.9,2.0,54,0.00,,,0.00,WUHU216HW,2013-01-08 14:45:00,
2013-01-08 07:48:00,38.0,22.8,29.70,West,270,1.1,1.6,54,0.00,,,0.00,WUHU216HW,2013-01-08 14:48:00,
2013-01-08 07:49:00,38.0,22.8,29.70,North,0,2.0,2.0,54,0.00,,,0.00,WUHU216HW,2013-01-08 14:49:00,
2013-01-08 07:50:00,38.0,22.8,29.70,NNW,338,4.0,4.0,54,0.00,,,0.00,WUHU216HW,2013-01-08 14:50:00,
2013-01-08 07:53:00,38.2,23.3,29.70,WNW,293,3.1,4.0,55,0.00,,,0.00,WUHU216HW,2013-01-08 14:53:00,
2013-01-08 07:54:00,38.5,23.7,29.70,NW,315,3.8,4.0,55,0.00,,,0.00,WUHU216HW,2013-01-08 14:54:00,
2013-01-08 07:55:00,38.5,23.7,29.70,North,0,3.1,4.0,55,0.00,,,0.00,WUHU216HW,2013-01-08 14:55:00,
2013-01-08 07:58:00,38.9,23.9,29.71,NNW,338,2.5,4.0,55,0.00,,,0.00,WUHU216HW,2013-01-08 14:58:00,
2013-01-08 07:59:00,39.1,24.1,29.71,WNW,293,2.9,3.8,55,0.00,,,0.00,WUHU216HW,2013-01-08 14:59:00,
2013-01-08 08:00:00,39.2,24.3,29.71,NNW,338,4.7,4.7,55,0.00,,,0.00,WUHU216HW,2013-01-08 15:00:00,
2013-01-08 08:03:00,39.6,24.2,29.71,NW,315,2.5,5.6,54,0.00,,,0.00,WUHU216HW,2013-01-08 15:03:00,
2013-01-08 08:04:00,39.8,24.4,29.71,North,0,4.0,5.6,54,0.00,,,0.00,WUHU216HW,2013-01-08 15:04:00,
2013-01-08 08:05:00,39.8,24.4,29.71,North,0,4.5,5.6,54,0.00,,,0.00,WUHU216HW,2013-01-08 15:05:00,
2013-01-08 08:06:00,40.0,24.6,29.71,NNE,23,2.7,5.6,54,0.00,,,0.00,WUHU216HW,2013-01-08 15:06:00,
2013-01-08 08:08:00,40.0,24.1,29.70,NNW,338,7.2,7.2,53,0.00,,,0.00,WUHU216HW,2013-01-08 15:08:00,
2013-01-08 08:09:00,40.1,24.3,29.70,NW,315,4.7,7.2,53,0.00,,,0.00,WUHU216HW,2013-01-08 15:09:00,
2013-01-08 08:10:00,40.3,24.0,29.71,NNW,338,4.3,7.2,52,0.00,,,0.00,WUHU216HW,2013-01-08 15:10:00,
2013-01-08 08:11:00,40.3,24.0,29.71,NNW,338,4.3,7.2,52,0.00,,,0.00,WUHU216HW,2013-01-08 15:11:00,
2013-01-08 08:13:00,40.7,24.3,29.71,NNE,23,6.5,7.2,52,0.00,,,0.00,WUHU216HW,2013-01-08 15:13:00,
2013-01-08 08:14:00,40.7,23.9,29.71,NNW,338,5.8,7.2,51,0.00,,,0.00,WUHU216HW,2013-01-08 15:14:00,
2013-01-08 08:15:00,40.9,24.0,29.71,NNW,338,5.4,7.2,51,0.00,,,0.00,WUHU216HW,2013-01-08 15:15:00,
2013-01-08 08:16:00,41.0,24.2,29.71,NNE,23,8.5,8.5,51,0.00,,,0.00,WUHU216HW,2013-01-08 15:16:00,
2013-01-08 08:18:00,41.0,24.2,29.72,North,0,4.5,8.5,51,0.00,,,0.00,WUHU216HW,2013-01-08 15:18:00,
2013-01-08 08:19:00,41.2,24.4,29.72,NE,45,4.0,8.5,51,0.00,,,0.00,WUHU216HW,2013-01-08 15:19:00,
2013-01-08 08:20:00,41.2,23.9,29.72,NW,315,7.6,8.5,50,0.00,,,0.00,WUHU216HW,2013-01-08 15:20:00,
2013-01-08 08:21:00,41.2,23.9,29.72,NW,315,7.6,8.5,50,0.00,,,0.00,WUHU216HW,2013-01-08 15:21:00,
2013-01-08 08:24:00,41.4,23.6,29.72,NNW,338,7.6,8.5,49,0.00,,,0.00,WUHU216HW,2013-01-08 15:24:00,
2013-01-08 08:25:00,41.4,23.6,29.72,NW,315,5.4,8.5,49,0.00,,,0.00,WUHU216HW,2013-01-08 15:25:00,
2013-01-08 08:26:00,41.4,23.6,29.72,NW,315,5.4,7.6,49,0.00,,,0.00,WUHU216HW,2013-01-08 15:26:00,
2013-01-08 08:29:00,41.8,23.9,29.72,North,0,1.8,8.5,49,0.00,,,0.00,WUHU216HW,2013-01-08 15:29:00,
2013-01-08 08:31:00,41.8,23.9,29.72,NW,315,5.4,8.5,49,0.00,,,0.00,WUHU216HW,2013-01-08 15:31:00,
2013-01-08 08:34:00,41.8,23.9,29.72,NNW,338,3.8,9.6,49,0.00,,,0.00,WUHU216HW,2013-01-08 15:34:00,
2013-01-08 08:36:00,41.8,23.9,29.72,North,0,4.7,9.6,49,0.00,,,0.00,WUHU216HW,2013-01-08 15:36:00,
2013-01-08 08:39:00,41.9,24.1,29.73,North,0,3.4,10.7,49,0.00,,,0.00,WUHU216HW,2013-01-08 15:39:00,
2013-01-08 08:40:00,41.9,24.1,29.73,North,0,3.4,10.7,49,0.00,,,0.00,WUHU216HW,2013-01-08 15:40:00,
2013-01-08 08:41:00,41.9,24.1,29.73,North,0,6.0,10.7,49,0.00,,,0.00,WUHU216HW,2013-01-08 15:41:00,
2013-01-08 08:44:00,42.1,24.3,29.73,North,0,5.1,10.7,49,0.00,,,0.00,WUHU216HW,2013-01-08 15:44:00,
2013-01-08 08:45:00,42.1,24.3,29.73,North,0,5.1,10.7,49,0.00,,,0.00,WUHU216HW,2013-01-08 15:45:00,
2013-01-08 08:46:00,42.1,23.8,29.73,North,0,5.4,10.7,48,0.00,,,0.00,WUHU216HW,2013-01-08 15:46:00,
2013-01-08 08:50:00,42.1,23.8,29.73,NW,315,5.8,6.0,48,0.00,,,0.00,WUHU216HW,2013-01-08 15:50:00,
2013-01-08 08:51:00,42.1,23.8,29.73,North,0,6.5,6.5,48,0.00,,,0.00,WUHU216HW,2013-01-08 15:51:00,
2013-01-08 08:55:00,42.1,23.8,29.73,North,0,3.4,6.5,48,0.00,,,0.00,WUHU216HW,2013-01-08 15:55:00,
2013-01-08 08:56:00,42.1,23.8,29.74,NW,315,3.8,6.5,48,0.00,,,0.00,WUHU216HW,2013-01-08 15:56:00,
2013-01-08 09:00:00,42.1,23.8,29.74,NW,315,5.6,6.5,48,0.00,,,0.00,WUHU216HW,2013-01-08 16:00:00,
2013-01-08 09:01:00,42.1,23.8,29.74,NW,315,5.6,6.5,48,0.00,,,0.00,WUHU216HW,2013-01-08 16:01:00,
2013-01-08 09:02:00,42.1,23.8,29.74,NNW,338,4.0,6.5,48,0.00,,,0.00,WUHU216HW,2013-01-08 16:02:00,
2013-01-08 09:05:00,42.1,23.8,29.74,NW,315,4.7,5.6,48,0.00,,,0.00,WUHU216HW,2013-01-08 16:05:00,
2013-01-08 09:06:00,42.1,23.8,29.74,North,0,3.4,5.6,48,0.00,,,0.00,WUHU216HW,2013-01-08 16:06:00,
2013-01-08 09:07:00,42.1,23.8,29.74,North,0,3.4,5.6,48,0.00,,,0.00,WUHU216HW,2013-01-08 16:07:00,
2013-01-08 09:10:00,41.8,23.4,29.74,NNW,338,4.0,5.6,48,0.00,,,0.00,WUHU216HW,2013-01-08 16:10:00,
2013-01-08 09:11:00,41.8,23.4,29.74,NNW,338,3.4,4.7,48,0.00,,,0.00,WUHU216HW,2013-01-08 16:11:00,
2013-01-08 09:12:00,41.8,23.4,29.74,NNW,338,3.4,4.7,48,0.00,,,0.00,WUHU216HW,2013-01-08 16:12:00,
2013-01-08 09:15:00,41.6,23.2,29.74,NNW,338,2.7,4.0,48,0.00,,,0.00,WUHU216HW,2013-01-08 16:15:00,
2013-01-08 09:16:00,41.4,23.0,29.74,WNW,293,3.4,4.0,48,0.00,,,0.00,WUHU216HW,2013-01-08 16:16:00,
2013-01-08 09:17:00,41.4,23.6,29.74,NW,315,1.1,4.0,49,0.00,,,0.00,WUHU216HW,2013-01-08 16:17:00,
2013-01-08 09:20:00,41.4,23.6,29.74,SW,225,2.2,4.0,49,0.00,,,0.00,WUHU216HW,2013-01-08 16:20:00,
2013-01-08 09:21:00,41.4,23.6,29.75,NW,315,2.5,4.0,49,0.00,,,0.00,WUHU216HW,2013-01-08 16:21:00,
2013-01-08 09:22:00,41.2,23.4,29.75,NW,315,1.6,4.0,49,0.00,,,0.00,WUHU216HW,2013-01-08 16:22:00,
2013-01-08 09:25:00,41.2,23.4,29.75,WNW,293,0.4,4.0,49,0.00,,,0.00,WUHU216HW,2013-01-08 16:25:00,
2013-01-08 09:26:00,41.2,23.4,29.75,WSW,248,0.4,4.0,49,0.00,,,0.00,WUHU216HW,2013-01-08 16:26:00,
2013-01-08 09:27:00,41.2,23.4,29.75,WSW,248,1.1,4.0,49,0.00,,,0.00,WUHU216HW,2013-01-08 16:27:00,
2013-01-08 09:30:00,40.9,23.0,29.75,NNW,338,1.6,2.5,49,0.00,,,0.00,WUHU216HW,2013-01-08 16:30:00,
2013-01-08 09:32:00,40.9,23.0,29.75,NNW,338,1.8,2.0,49,0.00,,,0.00,WUHU216HW,2013-01-08 16:32:00,
2013-01-08 09:35:00,40.7,23.0,29.75,NW,315,1.1,2.0,49,0.00,,,0.00,WUHU216HW,2013-01-08 16:35:00,
2013-01-08 09:37:00,40.7,23.0,29.75,NNW,338,1.8,2.0,49,0.00,,,0.00,WUHU216HW,2013-01-08 16:37:00,
2013-01-08 09:40:00,40.7,23.0,29.75,West,270,1.1,3.1,49,0.00,,,0.00,WUHU216HW,2013-01-08 16:40:00,
2013-01-08 09:41:00,40.7,23.0,29.75,West,270,1.1,3.1,49,0.00,,,0.00,WUHU216HW,2013-01-08 16:41:00,
2013-01-08 09:42:00,40.7,23.0,29.75,NW,315,1.8,3.1,49,0.00,,,0.00,WUHU216HW,2013-01-08 16:42:00,
2013-01-08 09:46:00,40.7,23.0,29.75,NW,315,4.0,4.0,49,0.00,,,0.00,WUHU216HW,2013-01-08 16:46:00,
2013-01-08 09:47:00,40.7,23.0,29.75,North,0,6.3,6.3,49,0.00,,,0.00,WUHU216HW,2013-01-08 16:47:00,
2013-01-08 09:48:00,40.9,23.0,29.75,NNE,23,4.0,6.3,49,0.00,,,0.00,WUHU216HW,2013-01-08 16:48:00,
2013-01-08 09:51:00,41.4,23.0,29.75,NNW,338,4.0,6.3,48,0.00,,,0.00,WUHU216HW,2013-01-08 16:51:00,
2013-01-08 09:52:00,41.6,22.7,29.75,NNE,23,6.9,6.9,47,0.00,,,0.00,WUHU216HW,2013-01-08 16:52:00,
2013-01-08 09:53:00,41.6,22.7,29.75,NNE,23,6.9,6.9,47,0.00,,,0.00,WUHU216HW,2013-01-08 16:53:00,
2013-01-08 09:56:00,42.1,23.2,29.75,NNW,338,2.5,6.9,47,0.00,,,0.00,WUHU216HW,2013-01-08 16:56:00,
2013-01-08 09:57:00,42.5,23.0,29.75,NNW,338,5.6,6.9,46,0.00,,,0.00,WUHU216HW,2013-01-08 16:57:00,
2013-01-08 09:58:00,42.5,23.0,29.75,NNW,338,5.6,6.9,46,0.00,,,0.00,WUHU216HW,2013-01-08 16:58:00,
2013-01-08 10:02:00,42.8,22.9,29.76,NNW,338,4.7,8.5,45,0.00,,,0.00,WUHU216HW,2013-01-08 17:02:00,
2013-01-08 10:03:00,43.0,23.1,29.76,North,0,6.3,8.5,45,0.00,,,0.00,WUHU216HW,2013-01-08 17:03:00,
2013-01-08 10:07:00,43.4,23.3,29.76,North,0,4.3,8.5,45,0.00,,,0.00,WUHU216HW,2013-01-08 17:07:00,
2013-01-08 10:08:00,43.4,23.3,29.76,North,0,4.3,8.5,45,0.00,,,0.00,WUHU216HW,2013-01-08 17:08:00,
2013-01-08 10:12:00,43.6,23.0,29.76,NNE,23,8.5,8.5,44,0.00,,,0.00,WUHU216HW,2013-01-08 17:12:00,
2013-01-08 10:13:00,43.7,22.6,29.76,North,0,6.0,8.5,43,0.00,,,0.00,WUHU216HW,2013-01-08 17:13:00,
2013-01-08 10:17:00,44.1,23.0,29.77,NW,315,6.0,8.5,43,0.00,,,0.00,WUHU216HW,2013-01-08 17:17:00,
2013-01-08 10:19:00,44.1,23.0,29.76,NNW,338,6.7,8.5,43,0.00,,,0.00,WUHU216HW,2013-01-08 17:19:00,
2013-01-08 10:22:00,44.3,22.5,29.77,NE,45,6.9,7.6,42,0.00,,,0.00,WUHU216HW,2013-01-08 17:22:00,
2013-01-08 10:24:00,44.3,22.5,29.77,NW,315,11.4,11.4,42,0.00,,,0.00,WUHU216HW,2013-01-08 17:24:00,
2013-01-08 10:27:00,44.3,22.5,29.77,NNW,338,4.0,11.4,42,0.00,,,0.00,WUHU216HW,2013-01-08 17:27:00,
2013-01-08 10:28:00,44.3,22.5,29.77,NNW,338,4.0,11.4,42,0.00,,,0.00,WUHU216HW,2013-01-08 17:28:00,
2013-01-08 10:29:00,44.3,22.5,29.77,North,0,4.9,11.4,42,0.00,,,0.00,WUHU216HW,2013-01-08 17:29:00,
2013-01-08 10:32:00,44.3,22.5,29.78,NNW,338,4.0,11.4,42,0.00,,,0.00,WUHU216HW,2013-01-08 17:32:00,
2013-01-08 10:33:00,44.3,22.5,29.78,NNW,338,4.0,11.4,42,0.00,,,0.00,WUHU216HW,2013-01-08 17:33:00,
2013-01-08 10:34:00,44.3,22.5,29.77,NNW,338,4.5,8.9,42,0.00,,,0.00,WUHU216HW,2013-01-08 17:34:00,
2013-01-08 10:38:00,44.3,22.5,29.78,NW,315,5.1,6.3,42,0.00,,,0.00,WUHU216HW,2013-01-08 17:38:00,
2013-01-08 10:39:00,44.3,22.5,29.78,North,0,3.6,6.3,42,0.00,,,0.00,WUHU216HW,2013-01-08 17:39:00,
2013-01-08 10:43:00,44.3,22.5,29.78,NNW,338,5.4,6.3,42,0.00,,,0.00,WUHU216HW,2013-01-08 17:43:00,
2013-01-08 10:44:00,44.3,22.5,29.78,NNE,23,7.6,7.6,42,0.00,,,0.00,WUHU216HW,2013-01-08 17:44:00,
2013-01-08 10:45:00,44.3,22.5,29.78,North,0,4.5,7.6,42,0.00,,,0.00,WUHU216HW,2013-01-08 17:45:00,
2013-01-08 10:48:00,44.3,22.0,29.78,NNW,338,4.9,7.6,41,0.00,,,0.00,WUHU216HW,2013-01-08 17:48:00,
2013-01-08 10:49:00,44.3,22.0,29.78,NNW,338,6.3,7.6,41,0.00,,,0.00,WUHU216HW,2013-01-08 17:49:00,
2013-01-08 10:50:00,44.3,22.5,29.78,North,0,1.3,7.6,42,0.00,,,0.00,WUHU216HW,2013-01-08 17:50:00,
2013-01-08 10:53:00,44.3,22.5,29.78,NNW,338,2.9,6.3,42,0.00,,,0.00,WUHU216HW,2013-01-08 17:53:00,
2013-01-08 10:54:00,44.3,22.5,29.78,North,0,6.9,6.9,42,0.00,,,0.00,WUHU216HW,2013-01-08 17:54:00,
2013-01-08 10:55:00,44.3,22.5,29.78,North,0,6.9,6.9,42,0.00,,,0.00,WUHU216HW,2013-01-08 17:55:00,
2013-01-08 10:58:00,44.3,22.0,29.78,North,0,5.1,7.8,41,0.00,,,0.00,WUHU216HW,2013-01-08 17:58:00,
2013-01-08 10:59:00,44.3,22.0,29.78,NNE,23,4.0,7.8,41,0.00,,,0.00,WUHU216HW,2013-01-08 17:59:00,
2013-01-08 11:00:00,44.3,22.0,29.78,North,0,2.5,7.8,41,0.00,,,0.00,WUHU216HW,2013-01-08 18:00:00,
2013-01-08 11:03:00,44.5,22.7,29.78,NNW,338,1.8,7.8,42,0.00,,,0.00,WUHU216HW,2013-01-08 18:03:00,
2013-01-08 11:04:00,44.5,22.7,29.78,NNW,338,1.6,7.8,42,0.00,,,0.00,WUHU216HW,2013-01-08 18:04:00,
2013-01-08 11:05:00,44.5,22.7,29.78,North,0,6.5,7.8,42,0.00,,,0.00,WUHU216HW,2013-01-08 18:05:00,
2013-01-08 11:09:00,44.6,22.9,29.78,NNE,23,5.1,6.5,42,0.00,,,0.00,WUHU216HW,2013-01-08 18:09:00,
2013-01-08 11:10:00,44.6,22.3,29.78,North,0,4.0,6.5,41,0.00,,,0.00,WUHU216HW,2013-01-08 18:10:00,
2013-01-08 11:14:00,44.8,23.1,29.78,North,0,1.3,6.5,42,0.00,,,0.00,WUHU216HW,2013-01-08 18:14:00,
2013-01-08 11:15:00,45.0,23.2,29.78,NE,45,2.7,5.1,42,0.00,,,0.00,WUHU216HW,2013-01-08 18:15:00,
2013-01-08 11:19:00,45.2,22.8,29.78,North,0,3.4,4.0,41,0.00,,,0.00,WUHU216HW,2013-01-08 18:19:00,
2013-01-08 11:20:00,45.2,22.8,29.78,North,0,3.4,3.4,41,0.00,,,0.00,WUHU216HW,2013-01-08 18:20:00,
2013-01-08 11:24:00,45.5,22.6,29.78,NNW,338,5.8,7.6,40,0.00,,,0.00,WUHU216HW,2013-01-08 18:24:00,
2013-01-08 11:25:00,45.7,22.8,29.78,NNE,23,2.2,7.6,40,0.00,,,0.00,WUHU216HW,2013-01-08 18:25:00,
2013-01-08 11:29:00,45.9,22.2,29.78,NNE,23,4.5,7.6,39,0.00,,,0.00,WUHU216HW,2013-01-08 18:29:00,
2013-01-08 11:30:00,45.9,22.2,29.78,NNE,23,4.5,7.6,39,0.00,,,0.00,WUHU216HW,2013-01-08 18:30:00,
2013-01-08 11:31:00,45.9,22.2,29.78,NNE,23,4.5,7.6,39,0.00,,,0.00,WUHU216HW,2013-01-08 18:31:00,
2013-01-08 11:34:00,46.4,20.1,29.78,North,0,4.7,7.6,35,0.00,,,0.00,WUHU216HW,2013-01-08 18:34:00,
2013-01-08 11:35:00,46.4,20.1,29.78,North,0,4.7,7.6,35,0.00,,,0.00,WUHU216HW,2013-01-08 18:35:00,
2013-01-08 11:36:00,46.6,20.9,29.78,North,0,3.8,7.6,36,0.00,,,0.00,WUHU216HW,2013-01-08 18:36:00,
2013-01-08 11:40:00,46.6,19.5,29.78,NNW,338,4.5,8.9,34,0.00,,,0.00,WUHU216HW,2013-01-08 18:40:00,
2013-01-08 11:41:00,46.4,18.7,29.78,NNE,23,7.6,8.9,33,0.00,,,0.00,WUHU216HW,2013-01-08 18:41:00,
2013-01-08 11:45:00,46.4,18.7,29.78,NE,45,13.9,13.9,33,0.00,,,0.00,WUHU216HW,2013-01-08 18:45:00,
2013-01-08 11:47:00,46.6,18.3,29.78,NNE,23,10.5,13.9,32,0.00,,,0.00,WUHU216HW,2013-01-08 18:47:00,
2013-01-08 11:50:00,47.0,18.5,29.78,North,0,12.8,13.9,32,0.00,,,0.00,WUHU216HW,2013-01-08 18:50:00,
2013-01-08 11:52:00,47.0,17.9,29.78,North,0,12.1,13.9,31,0.00,,,0.00,WUHU216HW,2013-01-08 18:52:00,
2013-01-08 11:55:00,47.2,17.4,29.78,NNW,338,13.6,13.6,30,0.00,,,0.00,WUHU216HW,2013-01-08 18:55:00,
2013-01-08 11:56:00,47.2,16.5,29.78,North,0,13.0,13.6,29,0.00,,,0.00,WUHU216HW,2013-01-08 18:56:00,
2013-01-08 11:57:00,47.3,16.7,29.78,North,0,10.5,13.6,29,0.00,,,0.00,WUHU216HW,2013-01-08 18:57:00,
2013-01-08 12:00:00,47.2,17.4,29.79,ENE,68,9.8,13.6,30,0.00,,,0.00,WUHU216HW,2013-01-08 19:00:00,
2013-01-08 12:01:00,47.2,17.4,29.79,NNE,23,4.5,13.6,30,0.00,,,0.00,WUHU216HW,2013-01-08 19:01:00,
2013-01-08 12:02:00,47.2,17.4,29.79,NE,45,6.7,13.6,30,0.00,,,0.00,WUHU216HW,2013-01-08 19:02:00,
2013-01-08 12:05:00,46.6,16.9,29.79,NNE,23,6.3,13.0,30,0.00,,,0.00,WUHU216HW,2013-01-08 19:05:00,
2013-01-08 12:06:00,46.6,17.6,29.79,NNW,338,5.4,13.0,31,0.00,,,0.00,WUHU216HW,2013-01-08 19:06:00,
2013-01-08 12:07:00,46.4,16.7,29.79,NE,45,12.5,13.0,30,0.00,,,0.00,WUHU216HW,2013-01-08 19:07:00,
2013-01-08 12:10:00,46.3,16.6,29.79,NNE,23,12.8,13.0,30,0.00,,,0.00,WUHU216HW,2013-01-08 19:10:00,
2013-01-08 12:11:00,46.1,16.4,29.79,SE,135,8.5,13.0,30,0.00,,,0.00,WUHU216HW,2013-01-08 19:11:00,
2013-01-08 12:12:00,46.1,16.4,29.79,NNE,23,9.2,13.0,30,0.00,,,0.00,WUHU216HW,2013-01-08 19:12:00,
2013-01-08 12:15:00,45.7,16.7,29.79,North,0,10.1,12.8,31,0.00,,,0.00,WUHU216HW,2013-01-08 19:15:00,
2013-01-08 12:16:00,45.7,16.7,29.79,North,0,10.1,12.8,31,0.00,,,0.00,WUHU216HW,2013-01-08 19:16:00,
2013-01-08 12:17:00,45.5,16.6,29.79,North,0,11.0,12.8,31,0.00,,,0.00,WUHU216HW,2013-01-08 19:17:00,
2013-01-08 12:20:00,45.4,16.5,29.80,NE,45,6.7,11.0,31,0.00,,,0.00,WUHU216HW,2013-01-08 19:20:00,
2013-01-08 12:21:00,45.4,16.5,29.80,NE,45,6.7,11.0,31,0.00,,,0.00,WUHU216HW,2013-01-08 19:21:00,
2013-01-08 12:23:00,45.4,16.5,29.80,NNE,23,6.3,11.0,31,0.00,,,0.00,WUHU216HW,2013-01-08 19:23:00,
2013-01-08 12:25:00,45.4,16.5,29.80,NNE,23,12.1,12.1,31,0.00,,,0.00,WUHU216HW,2013-01-08 19:25:00,
2013-01-08 12:26:00,45.4,16.5,29.80,NNE,23,12.1,12.1,31,0.00,,,0.00,WUHU216HW,2013-01-08 19:26:00,
2013-01-08 12:28:00,45.7,16.1,29.80,NE,45,6.0,12.1,30,0.00,,,0.00,WUHU216HW,2013-01-08 19:28:00,
2013-01-08 12:30:00,45.9,16.9,29.80,North,0,8.1,12.1,31,0.00,,,0.00,WUHU216HW,2013-01-08 19:30:00,
2013-01-08 12:31:00,45.9,16.9,29.80,North,0,8.1,12.1,31,0.00,,,0.00,WUHU216HW,2013-01-08 19:31:00,
2013-01-08 12:33:00,46.1,16.4,29.80,NNE,23,19.9,19.9,30,0.00,,,0.00,WUHU216HW,2013-01-08 19:33:00,
2013-01-08 12:35:00,46.3,15.7,29.80,NNW,338,6.7,19.9,29,0.00,,,0.00,WUHU216HW,2013-01-08 19:35:00,
2013-01-08 12:36:00,46.3,15.7,29.80,NNW,338,6.7,19.9,29,0.00,,,0.00,WUHU216HW,2013-01-08 19:36:00,
2013-01-08 12:39:00,46.4,16.7,29.80,NNE,23,11.2,19.9,30,0.00,,,0.00,WUHU216HW,2013-01-08 19:39:00,
2013-01-08 12:40:00,46.4,15.9,29.80,NNW,338,13.6,19.9,29,0.00,,,0.00,WUHU216HW,2013-01-08 19:40:00,
2013-01-08 12:41:00,46.4,15.9,29.80,NNW,338,13.6,19.9,29,0.00,,,0.00,WUHU216HW,2013-01-08 19:41:00,
2013-01-08 12:42:00,46.4,16.7,29.80,NNW,338,8.5,19.9,30,0.00,,,0.00,WUHU216HW,2013-01-08 19:42:00,
2013-01-08 12:44:00,46.4,16.7,29.80,North,0,10.3,15.2,30,0.00,,,0.00,WUHU216HW,2013-01-08 19:44:00,
2013-01-08 12:45:00,46.4,15.9,29.80,North,0,10.5,15.2,29,0.00,,,0.00,WUHU216HW,2013-01-08 19:45:00,
2013-01-08 12:46:00,46.4,15.9,29.80,North,0,14.3,15.2,29,0.00,,,0.00,WUHU216HW,2013-01-08 19:46:00,
2013-01-08 12:47:00,46.4,15.9,29.80,North,0,9.6,15.2,29,0.00,,,0.00,WUHU216HW,2013-01-08 19:47:00,
2013-01-08 12:49:00,46.4,15.9,29.80,North,0,7.6,15.2,29,0.00,,,0.00,WUHU216HW,2013-01-08 19:49:00,
2013-01-08 12:50:00,46.6,16.0,29.80,NNW,338,9.4,14.3,29,0.00,,,0.00,WUHU216HW,2013-01-08 19:50:00,
2013-01-08 12:51:00,46.6,16.0,29.80,North,0,9.8,14.3,29,0.00,,,0.00,WUHU216HW,2013-01-08 19:51:00,
2013-01-08 12:52:00,46.6,16.0,29.80,NNE,23,9.2,14.3,29,0.00,,,0.00,WUHU216HW,2013-01-08 19:52:00,
2013-01-08 12:54:00,46.8,17.1,29.80,NNE,23,8.3,14.3,30,0.00,,,0.00,WUHU216HW,2013-01-08 19:54:00,
2013-01-08 12:56:00,46.8,16.1,29.80,North,0,8.7,14.3,29,0.00,,,0.00,WUHU216HW,2013-01-08 19:56:00,
2013-01-08 12:57:00,46.6,16.9,29.80,North,0,5.6,11.2,30,0.00,,,0.00,WUHU216HW,2013-01-08 19:57:00,
2013-01-08 12:59:00,46.8,16.1,29.80,NNE,23,15.7,15.7,29,0.00,,,0.00,WUHU216HW,2013-01-08 19:59:00,
2013-01-08 13:01:00,46.6,16.0,29.80,NE,45,16.3,16.3,29,0.00,,,0.00,WUHU216HW,2013-01-08 20:01:00,
2013-01-08 13:02:00,46.6,16.0,29.80,NNE,23,8.1,16.3,29,0.00,,,0.00,WUHU216HW,2013-01-08 20:02:00,
2013-01-08 13:04:00,46.4,15.9,29.80,NNE,23,8.5,16.3,29,0.00,,,0.00,WUHU216HW,2013-01-08 20:04:00,
2013-01-08 13:06:00,46.4,15.9,29.80,ENE,68,6.3,16.3,29,0.00,,,0.00,WUHU216HW,2013-01-08 20:06:00,
2013-01-08 13:07:00,46.4,16.7,29.80,North,0,7.6,16.3,30,0.00,,,0.00,WUHU216HW,2013-01-08 20:07:00,
2013-01-08 13:10:00,46.1,15.5,29.80,NNE,23,11.0,11.4,29,0.00,,,0.00,WUHU216HW,2013-01-08 20:10:00,
2013-01-08 13:11:00,45.9,15.3,29.80,NNE,23,15.0,15.0,29,0.00,,,0.00,WUHU216HW,2013-01-08 20:11:00,
2013-01-08 13:12:00,45.9,15.3,29.80,NNE,23,7.6,15.0,29,0.00,,,0.00,WUHU216HW,2013-01-08 20:12:00,
2013-01-08 13:15:00,45.9,15.3,29.80,NNE,23,17.4,17.4,29,0.00,,,0.00,WUHU216HW,2013-01-08 20:15:00,
2013-01-08 13:16:00,45.7,15.2,29.80,West,270,8.3,17.4,29,0.00,,,0.00,WUHU216HW,2013-01-08 20:16:00,
2013-01-08 13:17:00,45.9,15.3,29.80,North,0,12.1,17.4,29,0.00,,,0.00,WUHU216HW,2013-01-08 20:17:00,
2013-01-08 13:20:00,45.9,15.3,29.80,NNE,23,12.3,17.4,29,0.00,,,0.00,WUHU216HW,2013-01-08 20:20:00,
2013-01-08 13:21:00,45.9,15.3,29.81,NE,45,7.2,17.4,29,0.00,,,0.00,WUHU216HW,2013-01-08 20:21:00,
2013-01-08 13:22:00,45.9,14.4,29.81,North,0,17.2,17.4,28,0.00,,,0.00,WUHU216HW,2013-01-08 20:22:00,
2013-01-08 13:25:00,45.7,15.2,29.81,ENE,68,8.3,17.2,29,0.00,,,0.00,WUHU216HW,2013-01-08 20:25:00,
2013-01-08 13:27:00,45.7,15.2,29.81,NNE,23,8.7,17.2,29,0.00,,,0.00,WUHU216HW,2013-01-08 20:27:00,
2013-01-08 13:28:00,45.7,15.2,29.81,NNE,23,8.5,17.2,29,0.00,,,0.00,WUHU216HW,2013-01-08 20:28:00,
2013-01-08 13:30:00,45.7,15.2,29.81,North,0,7.6,17.2,29,0.00,,,0.00,WUHU216HW,2013-01-08 20:30:00,
2013-01-08 13:32:00,45.9,15.3,29.81,North,0,5.4,17.2,29,0.00,,,0.00,WUHU216HW,2013-01-08 20:32:00,
2013-01-08 13:33:00,46.1,15.5,29.81,NNE,23,8.9,14.3,29,0.00,,,0.00,WUHU216HW,2013-01-08 20:33:00,
2013-01-08 13:35:00,46.3,15.7,29.82,North,0,4.7,14.3,29,0.00,,,0.00,WUHU216HW,2013-01-08 20:35:00,
2013-01-08 13:37:00,46.4,15.9,29.82,NE,45,8.7,14.3,29,0.00,,,0.00,WUHU216HW,2013-01-08 20:37:00,
2013-01-08 13:38:00,46.4,15.0,29.82,NE,45,12.8,12.8,28,0.00,,,0.00,WUHU216HW,2013-01-08 20:38:00,
2013-01-08 13:40:00,46.4,15.0,29.82,NE,45,8.7,12.8,28,0.00,,,0.00,WUHU216HW,2013-01-08 20:40:00,
2013-01-08 13:42:00,46.3,14.8,29.82,NNE,23,12.1,12.8,28,0.00,,,0.00,WUHU216HW,2013-01-08 20:42:00,
2013-01-08 13:43:00,46.1,14.6,29.82,NE,45,9.8,12.8,28,0.00,,,0.00,WUHU216HW,2013-01-08 20:43:00,
2013-01-08 13:45:00,45.9,14.4,29.82,NNE,23,8.9,15.7,28,0.00,,,0.00,WUHU216HW,2013-01-08 20:45:00,
2013-01-08 13:47:00,45.9,15.3,29.82,ENE,68,4.9,15.7,29,0.00,,,0.00,WUHU216HW,2013-01-08 20:47:00,
2013-01-08 13:48:00,45.9,15.3,29.82,ENE,68,4.9,15.7,29,0.00,,,0.00,WUHU216HW,2013-01-08 20:48:00,
2013-01-08 13:50:00,45.9,15.3,29.82,North,0,14.3,15.7,29,0.00,,,0.00,WUHU216HW,2013-01-08 20:50:00,
2013-01-08 13:52:00,45.9,14.4,29.82,North,0,13.4,15.7,28,0.00,,,0.00,WUHU216HW,2013-01-08 20:52:00,
2013-01-08 13:53:00,45.9,14.4,29.82,North,0,13.4,15.7,28,0.00,,,0.00,WUHU216HW,2013-01-08 20:53:00,
2013-01-08 13:56:00,45.7,15.2,29.82,NNE,23,6.0,14.3,29,0.00,,,0.00,WUHU216HW,2013-01-08 20:56:00,
2013-01-08 13:57:00,45.7,15.2,29.82,NW,315,6.9,14.3,29,0.00,,,0.00,WUHU216HW,2013-01-08 20:57:00,
2013-01-08 13:58:00,45.7,15.2,29.82,NW,315,6.9,14.3,29,0.00,,,0.00,WUHU216HW,2013-01-08 20:58:00,
2013-01-08 14:01:00,45.5,15.0,29.83,NNW,338,8.1,15.4,29,0.00,,,0.00,WUHU216HW,2013-01-08 21:01:00,
2013-01-08 14:02:00,45.5,15.0,29.83,NNE,23,7.6,15.4,29,0.00,,,0.00,WUHU216HW,2013-01-08 21:02:00,
2013-01-08 14:03:00,45.5,15.0,29.82,NNE,23,7.6,15.4,29,0.00,,,0.00,WUHU216HW,2013-01-08 21:03:00,
2013-01-08 14:06:00,45.4,14.9,29.83,NNE,23,6.9,15.4,29,0.00,,,0.00,WUHU216HW,2013-01-08 21:06:00,
2013-01-08 14:07:00,45.4,14.9,29.82,NE,45,5.4,15.4,29,0.00,,,0.00,WUHU216HW,2013-01-08 21:07:00,
2013-01-08 14:08:00,45.4,14.9,29.82,NE,45,10.1,15.4,29,0.00,,,0.00,WUHU216HW,2013-01-08 21:08:00,
2013-01-08 14:11:00,45.0,14.6,29.83,NE,45,12.8,12.8,29,0.00,,,0.00,WUHU216HW,2013-01-08 21:11:00,
2013-01-08 14:12:00,45.2,14.7,29.83,NE,45,7.2,12.8,29,0.00,,,0.00,WUHU216HW,2013-01-08 21:12:00,
2013-01-08 14:13:00,45.0,14.6,29.83,NE,45,10.5,12.8,29,0.00,,,0.00,WUHU216HW,2013-01-08 21:13:00,
2013-01-08 14:16:00,45.0,14.6,29.83,NNE,23,7.2,12.8,29,0.00,,,0.00,WUHU216HW,2013-01-08 21:16:00,
2013-01-08 14:18:00,45.0,14.6,29.83,NNW,338,6.7,12.8,29,0.00,,,0.00,WUHU216HW,2013-01-08 21:18:00,
2013-01-08 14:21:00,45.0,14.6,29.83,NNE,23,8.9,10.5,29,0.00,,,0.00,WUHU216HW,2013-01-08 21:21:00,
2013-01-08 14:23:00,45.0,15.5,29.83,NNE,23,5.1,9.8,30,0.00,,,0.00,WUHU216HW,2013-01-08 21:23:00,
2013-01-08 14:24:00,45.0,15.5,29.83,NNE,23,5.1,9.8,30,0.00,,,0.00,WUHU216HW,2013-01-08 21:24:00,
2013-01-08 14:27:00,45.2,15.6,29.83,WNW,293,6.9,11.2,30,0.00,,,0.00,WUHU216HW,2013-01-08 21:27:00,
2013-01-08 14:28:00,45.2,15.6,29.83,NE,45,6.3,11.2,30,0.00,,,0.00,WUHU216HW,2013-01-08 21:28:00,
2013-01-08 14:29:00,45.2,15.6,29.83,NE,45,6.3,11.2,30,0.00,,,0.00,WUHU216HW,2013-01-08 21:29:00,
2013-01-08 14:32:00,45.4,14.9,29.84,NE,45,12.5,12.5,29,0.00,,,0.00,WUHU216HW,2013-01-08 21:32:00,
2013-01-08 14:33:00,45.4,14.9,29.84,NNE,23,12.8,12.8,29,0.00,,,0.00,WUHU216HW,2013-01-08 21:33:00,
2013-01-08 14:34:00,45.4,14.9,29.84,NNE,23,12.8,12.8,29,0.00,,,0.00,WUHU216HW,2013-01-08 21:34:00,
2013-01-08 14:37:00,45.4,14.9,29.84,North,0,8.5,12.8,29,0.00,,,0.00,WUHU216HW,2013-01-08 21:37:00,
2013-01-08 14:38:00,45.4,14.9,29.84,NE,45,10.1,12.8,29,0.00,,,0.00,WUHU216HW,2013-01-08 21:38:00,
2013-01-08 14:39:00,45.4,14.9,29.84,NE,45,10.1,12.8,29,0.00,,,0.00,WUHU216HW,2013-01-08 21:39:00,
2013-01-08 14:42:00,45.4,14.9,29.84,NE,45,4.7,12.8,29,0.00,,,0.00,WUHU216HW,2013-01-08 21:42:00,
2013-01-08 14:43:00,45.4,14.9,29.84,North,0,5.8,11.0,29,0.00,,,0.00,WUHU216HW,2013-01-08 21:43:00,
2013-01-08 14:44:00,45.4,14.9,29.84,North,0,5.8,11.0,29,0.00,,,0.00,WUHU216HW,2013-01-08 21:44:00,
2013-01-08 14:47:00,45.2,14.7,29.85,NNE,23,9.8,12.8,29,0.00,,,0.00,WUHU216HW,2013-01-08 21:47:00,
2013-01-08 14:48:00,45.0,14.6,29.85,North,0,7.6,12.8,29,0.00,,,0.00,WUHU216HW,2013-01-08 21:48:00,
2013-01-08 14:49:00,45.0,14.6,29.85,North,0,7.6,12.8,29,0.00,,,0.00,WUHU216HW,2013-01-08 21:49:00,
2013-01-08 14:53:00,44.6,15.1,29.85,NNE,23,4.7,12.8,30,0.00,,,0.00,WUHU216HW,2013-01-08 21:53:00,
2013-01-08 14:54:00,44.6,15.1,29.85,NNE,23,10.1,12.8,30,0.00,,,0.00,WUHU216HW,2013-01-08 21:54:00,
2013-01-08 14:55:00,44.6,15.1,29.85,NNE,23,7.8,12.8,30,0.00,,,0.00,WUHU216HW,2013-01-08 21:55:00,
2013-01-08 14:58:00,44.6,15.8,29.85,NNE,23,7.8,10.1,31,0.00,,,0.00,WUHU216HW,2013-01-08 21:58:00,
2013-01-08 14:59:00,44.5,15.7,29.85,NNW,338,8.3,10.1,31,0.00,,,0.00,WUHU216HW,2013-01-08 21:59:00,
2013-01-08 15:00:00,44.5,15.7,29.85,NNE,23,5.6,10.1,31,0.00,,,0.00,WUHU216HW,2013-01-08 22:00:00,
2013-01-08 15:03:00,44.5,15.7,29.85,East,90,2.9,10.1,31,0.00,,,0.00,WUHU216HW,2013-01-08 22:03:00,
2013-01-08 15:04:00,44.5,15.7,29.86,North,0,7.4,9.2,31,0.00,,,0.00,WUHU216HW,2013-01-08 22:04:00,
2013-01-08 15:05:00,44.5,15.7,29.85,NNE,23,6.5,9.2,31,0.00,,,0.00,WUHU216HW,2013-01-08 22:05:00,
2013-01-08 15:08:00,44.5,16.3,29.86,NE,45,6.7,9.2,32,0.00,,,0.00,WUHU216HW,2013-01-08 22:08:00,
2013-01-08 15:09:00,44.5,16.3,29.86,NE,45,6.7,9.2,32,0.00,,,0.00,WUHU216HW,2013-01-08 22:09:00,
2013-01-08 15:10:00,44.6,16.5,29.85,ENE,68,5.8,9.2,32,0.00,,,0.00,WUHU216HW,2013-01-08 22:10:00,
2013-01-08 15:13:00,44.6,16.5,29.86,NNE,23,5.1,7.4,32,0.00,,,0.00,WUHU216HW,2013-01-08 22:13:00,
2013-01-08 15:14:00,44.6,16.5,29.86,NNE,23,5.1,6.7,32,0.00,,,0.00,WUHU216HW,2013-01-08 22:14:00,
2013-01-08 15:15:00,44.8,16.7,29.86,NE,45,8.9,8.9,32,0.00,,,0.00,WUHU216HW,2013-01-08 22:15:00,
2013-01-08 15:18:00,45.0,16.7,29.86,NNE,23,5.4,8.9,32,0.00,,,0.00,WUHU216HW,2013-01-08 22:18:00,
2013-01-08 15:19:00,45.0,16.7,29.86,NNE,23,5.4,8.9,32,0.00,,,0.00,WUHU216HW,2013-01-08 22:19:00,
2013-01-08 15:20:00,45.2,16.9,29.86,NNW,338,5.4,8.9,32,0.00,,,0.00,WUHU216HW,2013-01-08 22:20:00,
2013-01-08 15:23:00,45.2,16.9,29.86,NE,45,8.9,8.9,32,0.00,,,0.00,WUHU216HW,2013-01-08 22:23:00,
2013-01-08 15:24:00,45.2,16.9,29.86,NE,45,8.9,8.9,32,0.00,,,0.00,WUHU216HW,2013-01-08 22:24:00,
2013-01-08 15:25:00,45.2,16.9,29.86,NE,45,7.2,8.9,32,0.00,,,0.00,WUHU216HW,2013-01-08 22:25:00,
2013-01-08 15:28:00,45.2,16.9,29.86,NNE,23,5.8,8.9,32,0.00,,,0.00,WUHU216HW,2013-01-08 22:28:00,
2013-01-08 15:29:00,45.2,16.9,29.86,NNE,23,5.8,8.9,32,0.00,,,0.00,WUHU216HW,2013-01-08 22:29:00,
2013-01-08 15:30:00,45.2,16.9,29.86,NW,315,5.6,8.9,32,0.00,,,0.00,WUHU216HW,2013-01-08 22:30:00,
2013-01-08 15:34:00,45.0,16.7,29.86,NNW,338,5.1,7.2,32,0.00,,,0.00,WUHU216HW,2013-01-08 22:34:00,
2013-01-08 15:36:00,45.0,16.7,29.86,North,0,3.8,5.8,32,0.00,,,0.00,WUHU216HW,2013-01-08 22:36:00,
2013-01-08 15:39:00,44.8,16.7,29.86,NE,45,6.9,10.3,32,0.00,,,0.00,WUHU216HW,2013-01-08 22:39:00,
2013-01-08 15:41:00,44.6,16.5,29.87,ENE,68,5.1,10.3,32,0.00,,,0.00,WUHU216HW,2013-01-08 22:41:00,
2013-01-08 15:44:00,44.3,16.8,29.87,West,270,6.7,10.3,33,0.00,,,0.00,WUHU216HW,2013-01-08 22:44:00,
2013-01-08 15:45:00,44.3,16.8,29.87,NNE,23,4.0,10.3,33,0.00,,,0.00,WUHU216HW,2013-01-08 22:45:00,
2013-01-08 15:46:00,44.3,16.8,29.87,NNW,338,3.8,10.3,33,0.00,,,0.00,WUHU216HW,2013-01-08 22:46:00,
2013-01-08 15:49:00,44.1,16.7,29.87,NNE,23,4.3,6.7,33,0.00,,,0.00,WUHU216HW,2013-01-08 22:49:00,
2013-01-08 15:50:00,44.1,16.7,29.87,North,0,4.0,6.7,33,0.00,,,0.00,WUHU216HW,2013-01-08 22:50:00,
2013-01-08 15:51:00,43.9,16.5,29.87,NNW,338,7.8,7.8,33,0.00,,,0.00,WUHU216HW,2013-01-08 22:51:00,
2013-01-08 15:54:00,43.9,17.1,29.87,North,0,0.9,7.8,34,0.00,,,0.00,WUHU216HW,2013-01-08 22:54:00,
2013-01-08 15:55:00,43.9,17.1,29.88,North,0,1.1,7.8,34,0.00,,,0.00,WUHU216HW,2013-01-08 22:55:00,
2013-01-08 15:56:00,43.9,17.1,29.88,North,0,2.0,7.8,34,0.00,,,0.00,WUHU216HW,2013-01-08 22:56:00,
2013-01-08 15:59:00,43.6,16.1,29.88,NNE,23,0.9,7.8,33,0.00,,,0.00,WUHU216HW,2013-01-08 22:59:00,
2013-01-08 16:00:00,43.6,16.1,29.88,North,0,1.1,7.8,33,0.00,,,0.00,WUHU216HW,2013-01-08 23:00:00,
2013-01-08 16:01:00,43.4,16.0,29.88,North,0,0.9,3.1,33,0.00,,,0.00,WUHU216HW,2013-01-08 23:01:00,
2013-01-08 16:04:00,43.2,15.9,29.87,NNE,23,2.0,2.0,33,0.00,,,0.00,WUHU216HW,2013-01-08 23:04:00,
2013-01-08 16:05:00,43.0,15.7,29.88,North,0,1.8,2.0,33,0.00,,,0.00,WUHU216HW,2013-01-08 23:05:00,
2013-01-08 16:06:00,43.0,15.7,29.88,NNE,23,0.7,2.0,33,0.00,,,0.00,WUHU216HW,2013-01-08 23:06:00,
2013-01-08 16:09:00,42.8,16.8,29.88,NE,45,1.3,3.4,35,0.00,,,0.00,WUHU216HW,2013-01-08 23:09:00,
2013-01-08 16:10:00,42.8,16.8,29.88,NNE,23,2.5,3.4,35,0.00,,,0.00,WUHU216HW,2013-01-08 23:10:00,
2013-01-08 16:11:00,42.7,16.7,29.88,NE,45,1.3,3.4,35,0.00,,,0.00,WUHU216HW,2013-01-08 23:11:00,
2013-01-08 16:14:00,42.5,16.6,29.88,NE,45,2.0,3.4,35,0.00,,,0.00,WUHU216HW,2013-01-08 23:14:00,
2013-01-08 16:15:00,42.5,16.6,29.88,North,0,2.5,3.4,35,0.00,,,0.00,WUHU216HW,2013-01-08 23:15:00,
2013-01-08 16:16:00,42.5,16.6,29.88,North,0,2.5,3.4,35,0.00,,,0.00,WUHU216HW,2013-01-08 23:16:00,
2013-01-08 16:19:00,42.5,17.2,29.88,NE,45,2.0,2.9,36,0.00,,,0.00,WUHU216HW,2013-01-08 23:19:00,
2013-01-08 16:20:00,42.3,16.4,29.88,NE,45,2.5,2.9,35,0.00,,,0.00,WUHU216HW,2013-01-08 23:20:00,
2013-01-08 16:21:00,42.3,17.0,29.88,ENE,68,2.5,2.9,36,0.00,,,0.00,WUHU216HW,2013-01-08 23:21:00,
2013-01-08 16:24:00,42.3,17.0,29.88,NE,45,1.8,2.5,36,0.00,,,0.00,WUHU216HW,2013-01-08 23:24:00,
2013-01-08 16:25:00,42.3,17.0,29.88,NE,45,3.1,3.1,36,0.00,,,0.00,WUHU216HW,2013-01-08 23:25:00,
2013-01-08 16:26:00,42.1,16.9,29.88,NNE,23,2.2,3.1,36,0.00,,,0.00,WUHU216HW,2013-01-08 23:26:00,
2013-01-08 16:29:00,42.1,16.9,29.88,ENE,68,1.6,3.1,36,0.00,,,0.00,WUHU216HW,2013-01-08 23:29:00,
2013-01-08 16:30:00,42.1,16.9,29.88,NE,45,1.1,3.1,36,0.00,,,0.00,WUHU216HW,2013-01-08 23:30:00,
2013-01-08 16:31:00,42.1,16.9,29.88,ENE,68,2.2,3.1,36,0.00,,,0.00,WUHU216HW,2013-01-08 23:31:00,
2013-01-08 16:32:00,42.1,16.9,29.88,ENE,68,2.2,3.1,36,0.00,,,0.00,WUHU216HW,2013-01-08 23:32:00,
2013-01-08 16:35:00,41.8,16.6,29.88,ENE,68,0.7,3.1,36,0.00,,,0.00,WUHU216HW,2013-01-08 23:35:00,
2013-01-08 16:36:00,41.8,16.6,29.88,East,90,0.7,2.5,36,0.00,,,0.00,WUHU216HW,2013-01-08 23:36:00,
2013-01-08 16:37:00,41.6,16.4,29.88,North,0,0.2,2.5,36,0.00,,,0.00,WUHU216HW,2013-01-08 23:37:00,
2013-01-08 16:40:00,41.4,16.3,29.88,NNE,23,1.6,2.5,36,0.00,,,0.00,WUHU216HW,2013-01-08 23:40:00,
2013-01-08 16:41:00,41.4,16.9,29.88,West,270,0.7,2.5,37,0.00,,,0.00,WUHU216HW,2013-01-08 23:41:00,
2013-01-08 16:43:00,41.4,16.9,29.88,NNW,338,0.7,1.6,37,0.00,,,0.00,WUHU216HW,2013-01-08 23:43:00,
2013-01-08 16:45:00,41.2,16.7,29.89,West,270,0.7,1.6,37,0.00,,,0.00,WUHU216HW,2013-01-08 23:45:00,
2013-01-08 16:46:00,41.0,16.6,29.88,East,90,1.1,1.6,37,0.00,,,0.00,WUHU216HW,2013-01-08 23:46:00,
2013-01-08 16:48:00,41.0,16.6,29.88,ENE,68,2.5,2.5,37,0.00,,,0.00,WUHU216HW,2013-01-08 23:48:00,
2013-01-08 16:50:00,40.7,16.3,29.88,NE,45,2.5,2.5,37,0.00,,,0.00,WUHU216HW,2013-01-08 23:50:00,
2013-01-08 16:51:00,40.7,16.3,29.88,NNE,23,1.6,2.5,37,0.00,,,0.00,WUHU216HW,2013-01-08 23:51:00,
2013-01-08 16:53:00,40.5,16.7,29.88,NE,45,1.6,2.5,38,0.00,,,0.00,WUHU216HW,2013-01-08 23:53:00,
2013-01-08 16:55:00,40.5,16.7,29.88,NE,45,0.7,2.5,38,0.00,,,0.00,WUHU216HW,2013-01-08 23:55:00,
2013-01-08 16:56:00,40.3,16.6,29.88,NE,45,4.0,4.0,38,0.00,,,0.00,WUHU216HW,2013-01-08 23:56:00,
2013-01-08 16:58:00,40.3,16.6,29.88,NNE,23,3.1,4.0,38,0.00,,,0.00,WUHU216HW,2013-01-08 23:58:00,
2013-01-08 17:00:00,40.5,16.7,29.89,NE,45,1.1,4.0,38,0.00,,,0.00,WUHU216HW,2013-01-09 00:00:00,
2013-01-08 17:01:00,40.5,16.7,29.88,NNE,23,1.1,4.0,38,0.00,,,0.00,WUHU216HW,2013-01-09 00:01:00,
2013-01-08 17:03:00,40.5,16.7,29.88,NE,45,0.7,4.0,38,0.00,,,0.00,WUHU216HW,2013-01-09 00:03:00,
2013-01-08 17:05:00,40.5,17.4,29.89,NE,45,1.1,4.0,39,0.00,,,0.00,WUHU216HW,2013-01-09 00:05:00,
2013-01-08 17:06:00,40.3,17.3,29.88,NNE,23,1.1,3.1,39,0.00,,,0.00,WUHU216HW,2013-01-09 00:06:00,
2013-01-08 17:07:00,40.3,17.3,29.88,NNE,23,1.1,3.1,39,0.00,,,0.00,WUHU216HW,2013-01-09 00:07:00,
2013-01-08 17:08:00,40.3,17.3,29.88,NNE,23,0.4,1.3,39,0.00,,,0.00,WUHU216HW,2013-01-09 00:08:00,
2013-01-08 17:10:00,40.3,17.3,29.88,NNE,23,0.9,1.1,39,0.00,,,0.00,WUHU216HW,2013-01-09 00:10:00,
2013-01-08 17:11:00,40.3,17.3,29.88,NNE,23,0.4,1.1,39,0.00,,,0.00,WUHU216HW,2013-01-09 00:11:00,
2013-01-08 17:12:00,40.3,17.3,29.88,NNE,23,0.4,1.1,39,0.00,,,0.00,WUHU216HW,2013-01-09 00:12:00,
2013-01-08 17:13:00,40.1,17.1,29.88,NNE,23,0.2,1.1,39,0.00,,,0.00,WUHU216HW,2013-01-09 00:13:00,
2013-01-08 17:15:00,40.1,17.1,29.88,East,90,1.1,1.1,39,0.00,,,0.00,WUHU216HW,2013-01-09 00:15:00,
2013-01-08 17:16:00,40.1,17.1,29.88,NNE,23,1.6,1.6,39,0.00,,,0.00,WUHU216HW,2013-01-09 00:16:00,
2013-01-08 17:17:00,40.1,17.1,29.88,NNE,23,1.6,1.6,39,0.00,,,0.00,WUHU216HW,2013-01-09 00:17:00,
2013-01-08 17:18:00,40.0,16.9,29.88,North,0,0.4,1.6,39,0.00,,,0.00,WUHU216HW,2013-01-09 00:18:00,
2013-01-08 17:20:00,40.0,16.9,29.88,North,0,0.9,1.6,39,0.00,,,0.00,WUHU216HW,2013-01-09 00:20:00,
2013-01-08 17:21:00,40.0,16.9,29.88,NE,45,0.4,1.6,39,0.00,,,0.00,WUHU216HW,2013-01-09 00:21:00,
2013-01-08 17:22:00,40.0,16.9,29.88,NE,45,0.4,1.6,39,0.00,,,0.00,WUHU216HW,2013-01-09 00:22:00,
2013-01-08 17:23:00,40.0,16.9,29.88,NE,45,0.4,1.6,39,0.00,,,0.00,WUHU216HW,2013-01-09 00:23:00,
2013-01-08 17:26:00,39.8,17.4,29.88,NNE,23,0.7,1.6,40,0.00,,,0.00,WUHU216HW,2013-01-09 00:26:00,
2013-01-08 17:27:00,39.8,17.4,29.88,North,0,0.4,1.1,40,0.00,,,0.00,WUHU216HW,2013-01-09 00:27:00,
2013-01-08 17:28:00,39.6,17.3,29.88,North,0,0.4,0.9,40,0.00,,,0.00,WUHU216HW,2013-01-09 00:28:00,
2013-01-08 17:31:00,39.6,17.3,29.88,North,0,1.1,1.1,40,0.00,,,0.00,WUHU216HW,2013-01-09 00:31:00,
2013-01-08 17:32:00,39.4,17.1,29.88,NW,315,0.9,1.1,40,0.00,,,0.00,WUHU216HW,2013-01-09 00:32:00,
2013-01-08 17:33:00,39.4,17.1,29.88,North,0,0.2,1.1,40,0.00,,,0.00,WUHU216HW,2013-01-09 00:33:00,
2013-01-08 17:36:00,39.4,17.1,29.88,North,0,0.2,1.1,40,0.00,,,0.00,WUHU216HW,2013-01-09 00:36:00,
2013-01-08 17:37:00,39.2,16.9,29.88,North,0,0.2,1.1,40,0.00,,,0.00,WUHU216HW,2013-01-09 00:37:00,
2013-01-08 17:38:00,39.2,16.9,29.88,North,0,0.0,1.1,40,0.00,,,0.00,WUHU216HW,2013-01-09 00:38:00,
2013-01-08 17:41:00,39.2,17.5,29.88,NE,45,0.2,0.4,41,0.00,,,0.00,WUHU216HW,2013-01-09 00:41:00,
2013-01-08 17:42:00,39.2,17.5,29.88,ENE,68,0.4,0.4,41,0.00,,,0.00,WUHU216HW,2013-01-09 00:42:00,
2013-01-08 17:43:00,39.2,17.5,29.88,East,90,0.9,0.9,41,0.00,,,0.00,WUHU216HW,2013-01-09 00:43:00,
2013-01-08 17:46:00,39.2,17.5,29.88,East,90,0.2,0.9,41,0.00,,,0.00,WUHU216HW,2013-01-09 00:46:00,
2013-01-08 17:47:00,39.1,17.3,29.88,East,90,0.0,0.9,41,0.00,,,0.00,WUHU216HW,2013-01-09 00:47:00,
2013-01-08 17:48:00,39.1,17.3,29.88,East,90,0.0,0.9,41,0.00,,,0.00,WUHU216HW,2013-01-09 00:48:00,
2013-01-08 17:51:00,38.9,17.6,29.88,SW,225,1.1,1.1,42,0.00,,,0.00,WUHU216HW,2013-01-09 00:51:00,
2013-01-08 17:52:00,38.9,17.6,29.88,SW,225,1.1,1.1,42,0.00,,,0.00,WUHU216HW,2013-01-09 00:52:00,
2013-01-08 17:53:00,38.9,17.6,29.88,SW,225,1.3,1.3,42,0.00,,,0.00,WUHU216HW,2013-01-09 00:53:00,
2013-01-08 17:54:00,38.9,17.6,29.88,SW,225,2.2,2.2,42,0.00,,,0.00,WUHU216HW,2013-01-09 00:54:00,
2013-01-08 17:56:00,38.5,17.3,29.88,SW,225,2.2,2.2,42,0.00,,,0.00,WUHU216HW,2013-01-09 00:56:00,
2013-01-08 17:57:00,38.5,17.3,29.88,SW,225,2.2,2.2,42,0.00,,,0.00,WUHU216HW,2013-01-09 00:57:00,
2013-01-08 17:58:00,38.5,17.3,29.88,SW,225,2.2,2.2,42,0.00,,,0.00,WUHU216HW,2013-01-09 00:58:00,
2013-01-08 17:59:00,38.5,17.3,29.88,SW,225,2.0,2.2,42,0.00,,,0.00,WUHU216HW,2013-01-09 00:59:00,
2013-01-08 18:01:00,38.3,17.2,29.88,SW,225,2.0,2.9,42,0.00,,,0.00,WUHU216HW,2013-01-09 01:01:00,
2013-01-08 18:03:00,38.2,17.0,29.88,SSW,203,1.1,2.9,42,0.00,,,0.00,WUHU216HW,2013-01-09 01:03:00,
2013-01-08 18:04:00,38.2,17.0,29.88,SW,225,1.1,2.9,42,0.00,,,0.00,WUHU216HW,2013-01-09 01:04:00,
2013-01-08 18:06:00,37.8,16.7,29.88,SSE,158,0.4,2.9,42,0.00,,,0.00,WUHU216HW,2013-01-09 01:06:00,
2013-01-08 18:08:00,37.8,17.2,29.88,SSE,158,0.2,2.9,43,0.00,,,0.00,WUHU216HW,2013-01-09 01:08:00,
2013-01-08 18:09:00,37.8,17.2,29.88,SSE,158,0.4,2.9,43,0.00,,,0.00,WUHU216HW,2013-01-09 01:09:00,
2013-01-08 18:11:00,37.6,17.0,29.88,SE,135,0.2,2.2,43,0.00,,,0.00,WUHU216HW,2013-01-09 01:11:00,
2013-01-08 18:13:00,37.4,16.8,29.88,SE,135,0.2,1.1,43,0.00,,,0.00,WUHU216HW,2013-01-09 01:13:00,
2013-01-08 18:14:00,37.4,16.8,29.88,SSW,203,0.7,0.9,43,0.00,,,0.00,WUHU216HW,2013-01-09 01:14:00,
2013-01-08 18:17:00,37.3,16.8,29.88,SW,225,0.2,0.7,43,0.00,,,0.00,WUHU216HW,2013-01-09 01:17:00,
2013-01-08 18:18:00,37.1,17.1,29.89,NE,45,0.4,0.9,44,0.00,,,0.00,WUHU216HW,2013-01-09 01:18:00,
2013-01-08 18:19:00,37.1,17.1,29.89,ENE,68,0.0,0.9,44,0.00,,,0.00,WUHU216HW,2013-01-09 01:19:00,
2013-01-08 18:20:00,37.1,17.1,29.89,ENE,68,0.0,0.9,44,0.00,,,0.00,WUHU216HW,2013-01-09 01:20:00,
2013-01-08 18:22:00,36.7,16.7,29.89,SSW,203,0.0,0.9,44,0.00,,,0.00,WUHU216HW,2013-01-09 01:22:00,
2013-01-08 18:23:00,36.7,16.7,29.89,SSW,203,0.7,1.1,44,0.00,,,0.00,WUHU216HW,2013-01-09 01:23:00,
2013-01-08 18:24:00,36.7,16.7,29.89,SSW,203,0.2,1.1,44,0.00,,,0.00,WUHU216HW,2013-01-09 01:24:00,
2013-01-08 18:25:00,36.7,16.7,29.89,SSW,203,0.4,1.1,44,0.00,,,0.00,WUHU216HW,2013-01-09 01:25:00,
2013-01-08 18:27:00,36.5,16.6,29.89,South,180,1.1,1.1,44,0.00,,,0.00,WUHU216HW,2013-01-09 01:27:00,
2013-01-08 18:28:00,36.5,16.6,29.89,SE,135,0.7,1.3,44,0.00,,,0.00,WUHU216HW,2013-01-09 01:28:00,
2013-01-08 18:29:00,36.5,17.1,29.89,South,180,0.7,1.3,45,0.00,,,0.00,WUHU216HW,2013-01-09 01:29:00,
2013-01-08 18:30:00,36.5,17.1,29.89,South,180,0.7,1.3,45,0.00,,,0.00,WUHU216HW,2013-01-09 01:30:00,
2013-01-08 18:32:00,36.4,16.9,29.89,NNE,23,1.1,1.3,45,0.00,,,0.00,WUHU216HW,2013-01-09 01:32:00,
2013-01-08 18:33:00,36.4,16.9,29.89,East,90,0.0,1.3,45,0.00,,,0.00,WUHU216HW,2013-01-09 01:33:00,
2013-01-08 18:34:00,36.4,16.9,29.89,East,90,0.2,1.3,45,0.00,,,0.00,WUHU216HW,2013-01-09 01:34:00,
2013-01-08 18:35:00,36.4,16.9,29.89,East,90,0.2,1.3,45,0.00,,,0.00,WUHU216HW,2013-01-09 01:35:00,
2013-01-08 18:37:00,36.4,16.9,29.89,East,90,0.0,1.3,45,0.00,,,0.00,WUHU216HW,2013-01-09 01:37:00,
2013-01-08 18:38:00,36.4,16.9,29.89,SW,225,0.7,1.1,45,0.00,,,0.00,WUHU216HW,2013-01-09 01:38:00,
2013-01-08 18:39:00,36.4,16.9,29.89,SSW,203,1.3,1.3,45,0.00,,,0.00,WUHU216HW,2013-01-09 01:39:00,
2013-01-08 18:40:00,36.4,16.9,29.89,SSW,203,1.3,1.3,45,0.00,,,0.00,WUHU216HW,2013-01-09 01:40:00,
2013-01-08 18:42:00,36.2,16.7,29.89,SW,225,1.1,1.3,45,0.00,,,0.00,WUHU216HW,2013-01-09 01:42:00,
2013-01-08 18:43:00,36.2,16.7,29.90,SW,225,0.4,1.3,45,0.00,,,0.00,WUHU216HW,2013-01-09 01:43:00,
2013-01-08 18:44:00,36.2,16.7,29.90,SW,225,2.2,2.2,45,0.00,,,0.00,WUHU216HW,2013-01-09 01:44:00,
2013-01-08 18:45:00,36.2,16.7,29.90,SW,225,1.1,2.2,45,0.00,,,0.00,WUHU216HW,2013-01-09 01:45:00,
2013-01-08 18:47:00,36.2,16.7,29.90,SW,225,0.7,2.2,45,0.00,,,0.00,WUHU216HW,2013-01-09 01:47:00,
2013-01-08 18:48:00,36.0,16.7,29.90,SW,225,1.1,2.2,45,0.00,,,0.00,WUHU216HW,2013-01-09 01:48:00,
2013-01-08 18:49:00,36.0,16.7,29.89,SW,225,1.1,2.2,45,0.00,,,0.00,WUHU216HW,2013-01-09 01:49:00,
2013-01-08 18:50:00,36.0,16.7,29.89,SW,225,1.1,2.2,45,0.00,,,0.00,WUHU216HW,2013-01-09 01:50:00,
2013-01-08 18:52:00,36.0,16.7,29.89,SW,225,0.4,2.2,45,0.00,,,0.00,WUHU216HW,2013-01-09 01:52:00,
2013-01-08 18:54:00,36.0,16.7,29.89,SW,225,0.7,2.2,45,0.00,,,0.00,WUHU216HW,2013-01-09 01:54:00,
2013-01-08 18:55:00,36.0,16.7,29.89,SW,225,0.2,1.3,45,0.00,,,0.00,WUHU216HW,2013-01-09 01:55:00,
2013-01-08 18:56:00,36.0,16.7,29.89,SW,225,0.2,1.3,45,0.00,,,0.00,WUHU216HW,2013-01-09 01:56:00,
2013-01-08 18:57:00,35.8,16.5,29.89,SW,225,0.9,1.1,45,0.00,,,0.00,WUHU216HW,2013-01-09 01:57:00,
2013-01-08 18:59:00,35.8,16.5,29.89,SSW,203,1.8,1.8,45,0.00,,,0.00,WUHU216HW,2013-01-09 01:59:00,
2013-01-08 19:00:00,35.8,16.5,29.90,SSW,203,1.3,1.8,45,0.00,,,0.00,WUHU216HW,2013-01-09 02:00:00,
2013-01-08 19:01:00,35.8,16.5,29.89,SSW,203,1.3,1.8,45,0.00,,,0.00,WUHU216HW,2013-01-09 02:01:00,
2013-01-08 19:02:00,35.8,16.5,29.90,SSW,203,1.3,1.8,45,0.00,,,0.00,WUHU216HW,2013-01-09 02:02:00,
2013-01-08 19:04:00,35.8,16.5,29.89,SW,225,2.9,2.9,45,0.00,,,0.00,WUHU216HW,2013-01-09 02:04:00,
2013-01-08 19:05:00,35.8,17.0,29.89,WSW,248,1.6,2.9,46,0.00,,,0.00,WUHU216HW,2013-01-09 02:05:00,
2013-01-08 19:06:00,35.8,17.0,29.90,WSW,248,2.5,2.9,46,0.00,,,0.00,WUHU216HW,2013-01-09 02:06:00,
2013-01-08 19:07:00,35.6,16.8,29.90,SW,225,2.5,2.9,46,0.00,,,0.00,WUHU216HW,2013-01-09 02:07:00,
2013-01-08 19:09:00,35.6,16.8,29.90,SSW,203,2.9,2.9,46,0.00,,,0.00,WUHU216HW,2013-01-09 02:09:00,
2013-01-08 19:10:00,35.6,16.8,29.90,SSW,203,2.2,2.9,46,0.00,,,0.00,WUHU216HW,2013-01-09 02:10:00,
2013-01-08 19:11:00,35.6,16.8,29.90,SW,225,1.1,2.9,46,0.00,,,0.00,WUHU216HW,2013-01-09 02:11:00,
2013-01-08 19:13:00,35.6,16.8,29.90,SW,225,3.4,3.4,46,0.00,,,0.00,WUHU216HW,2013-01-09 02:13:00,
2013-01-08 19:14:00,35.6,16.8,29.90,WSW,248,0.4,3.4,46,0.00,,,0.00,WUHU216HW,2013-01-09 02:14:00,
2013-01-08 19:15:00,35.6,16.8,29.90,WSW,248,0.9,3.4,46,0.00,,,0.00,WUHU216HW,2013-01-09 02:15:00,
2013-01-08 19:16:00,35.6,16.8,29.90,WSW,248,0.4,3.4,46,0.00,,,0.00,WUHU216HW,2013-01-09 02:16:00,
2013-01-08 19:18:00,35.5,16.7,29.89,NW,315,0.7,3.4,46,0.00,,,0.00,WUHU216HW,2013-01-09 02:18:00,
2013-01-08 19:19:00,35.5,16.7,29.89,West,270,1.1,3.4,46,0.00,,,0.00,WUHU216HW,2013-01-09 02:19:00,
2013-01-08 19:20:00,35.5,16.7,29.89,West,270,1.1,3.4,46,0.00,,,0.00,WUHU216HW,2013-01-09 02:20:00,
2013-01-08 19:21:00,35.5,16.7,29.89,WSW,248,0.9,3.4,46,0.00,,,0.00,WUHU216HW,2013-01-09 02:21:00,
2013-01-08 19:23:00,35.5,16.7,29.90,SSW,203,1.1,1.1,46,0.00,,,0.00,WUHU216HW,2013-01-09 02:23:00,
2013-01-08 19:24:00,35.6,17.4,29.89,SW,225,2.0,2.0,47,0.00,,,0.00,WUHU216HW,2013-01-09 02:24:00,
2013-01-08 19:25:00,35.5,17.2,29.89,SW,225,1.8,2.0,47,0.00,,,0.00,WUHU216HW,2013-01-09 02:25:00,
2013-01-08 19:26:00,35.5,17.2,29.89,SW,225,1.3,2.0,47,0.00,,,0.00,WUHU216HW,2013-01-09 02:26:00,
2013-01-08 19:28:00,35.6,17.4,29.89,SW,225,1.1,2.0,47,0.00,,,0.00,WUHU216HW,2013-01-09 02:28:00,
2013-01-08 19:29:00,35.6,17.4,29.89,SSW,203,1.1,2.0,47,0.00,,,0.00,WUHU216HW,2013-01-09 02:29:00,
2013-01-08 19:30:00,35.6,17.4,29.89,SW,225,1.6,2.0,47,0.00,,,0.00,WUHU216HW,2013-01-09 02:30:00,
2013-01-08 19:31:00,35.6,17.4,29.90,SSW,203,0.4,2.0,47,0.00,,,0.00,WUHU216HW,2013-01-09 02:31:00,
2013-01-08 19:34:00,35.6,17.4,29.90,SSW,203,0.2,2.0,47,0.00,,,0.00,WUHU216HW,2013-01-09 02:34:00,
2013-01-08 19:35:00,35.6,17.4,29.90,SSW,203,0.0,1.6,47,0.00,,,0.00,WUHU216HW,2013-01-09 02:35:00,
2013-01-08 19:36:00,35.6,17.4,29.90,SSE,158,0.4,1.6,47,0.00,,,0.00,WUHU216HW,2013-01-09 02:36:00,
2013-01-08 19:39:00,35.6,17.4,29.90,SSE,158,0.7,1.6,47,0.00,,,0.00,WUHU216HW,2013-01-09 02:39:00,
2013-01-08 19:40:00,35.6,17.4,29.90,SW,225,1.6,1.6,47,0.00,,,0.00,WUHU216HW,2013-01-09 02:40:00,
2013-01-08 19:42:00,35.6,17.4,29.90,SE,135,0.4,1.6,47,0.00,,,0.00,WUHU216HW,2013-01-09 02:42:00,
2013-01-08 19:44:00,35.6,17.4,29.90,South,180,0.4,1.6,47,0.00,,,0.00,WUHU216HW,2013-01-09 02:44:00,
2013-01-08 19:45:00,35.6,17.4,29.90,South,180,0.4,1.6,47,0.00,,,0.00,WUHU216HW,2013-01-09 02:45:00,
2013-01-08 19:46:00,35.6,17.4,29.90,South,180,0.2,1.6,47,0.00,,,0.00,WUHU216HW,2013-01-09 02:46:00,
2013-01-08 19:48:00,35.6,17.4,29.90,South,180,0.0,1.6,47,0.00,,,0.00,WUHU216HW,2013-01-09 02:48:00,
2013-01-08 19:50:00,35.6,17.4,29.90,South,180,0.4,1.6,47,0.00,,,0.00,WUHU216HW,2013-01-09 02:50:00,
2013-01-08 19:51:00,35.6,17.4,29.90,SSE,158,0.7,1.1,47,0.00,,,0.00,WUHU216HW,2013-01-09 02:51:00,
2013-01-08 19:53:00,35.6,17.4,29.90,South,180,0.2,1.1,47,0.00,,,0.00,WUHU216HW,2013-01-09 02:53:00,
2013-01-08 19:55:00,35.5,17.6,29.90,SSW,203,0.0,0.7,48,0.00,,,0.00,WUHU216HW,2013-01-09 02:55:00,
2013-01-08 19:56:00,35.6,17.8,29.90,SW,225,0.4,0.7,48,0.00,,,0.00,WUHU216HW,2013-01-09 02:56:00,
2013-01-08 19:58:00,35.5,17.6,29.90,SW,225,1.3,1.3,48,0.00,,,0.00,WUHU216HW,2013-01-09 02:58:00,
2013-01-08 20:00:00,35.5,17.6,29.90,SW,225,0.9,1.3,48,0.00,,,0.00,WUHU216HW,2013-01-09 03:00:00,
2013-01-08 20:01:00,35.3,17.5,29.90,SW,225,1.1,1.3,48,0.00,,,0.00,WUHU216HW,2013-01-09 03:01:00,
2013-01-08 20:03:00,35.3,17.5,29.90,SW,225,1.8,1.8,48,0.00,,,0.00,WUHU216HW,2013-01-09 03:03:00,
2013-01-08 20:05:00,35.1,17.4,29.90,SSW,203,0.7,1.8,48,0.00,,,0.00,WUHU216HW,2013-01-09 03:05:00,
2013-01-08 20:06:00,35.1,17.4,29.90,SSW,203,0.4,1.8,48,0.00,,,0.00,WUHU216HW,2013-01-09 03:06:00,
2013-01-08 20:08:00,35.1,17.4,29.89,SSW,203,0.2,1.8,48,0.00,,,0.00,WUHU216HW,2013-01-09 03:08:00,
2013-01-08 20:10:00,34.9,17.2,29.89,SSW,203,0.0,1.8,48,0.00,,,0.00,WUHU216HW,2013-01-09 03:10:00,
2013-01-08 20:11:00,34.9,17.2,29.89,SSW,203,0.0,1.8,48,0.00,,,0.00,WUHU216HW,2013-01-09 03:11:00,
2013-01-08 20:13:00,34.9,17.2,29.90,WSW,248,1.1,1.1,48,0.00,,,0.00,WUHU216HW,2013-01-09 03:13:00,
2013-01-08 20:15:00,34.9,17.2,29.90,WSW,248,1.1,1.3,48,0.00,,,0.00,WUHU216HW,2013-01-09 03:15:00,
2013-01-08 20:16:00,34.9,17.2,29.90,WSW,248,1.1,1.3,48,0.00,,,0.00,WUHU216HW,2013-01-09 03:16:00,
2013-01-08 20:18:00,34.7,17.0,29.90,SW,225,2.0,2.0,48,0.00,,,0.00,WUHU216HW,2013-01-09 03:18:00,
2013-01-08 20:20:00,34.6,16.8,29.90,SW,225,2.5,3.4,48,0.00,,,0.00,WUHU216HW,2013-01-09 03:20:00,
2013-01-08 20:21:00,34.6,17.3,29.90,SSW,203,1.8,3.4,49,0.00,,,0.00,WUHU216HW,2013-01-09 03:21:00,
2013-01-08 20:22:00,34.6,17.3,29.90,SSW,203,1.8,3.4,49,0.00,,,0.00,WUHU216HW,2013-01-09 03:22:00,
2013-01-08 20:23:00,34.6,17.3,29.90,SW,225,2.2,3.4,49,0.00,,,0.00,WUHU216HW,2013-01-09 03:23:00,
2013-01-08 20:26:00,34.4,17.1,29.90,SW,225,2.5,3.4,49,0.00,,,0.00,WUHU216HW,2013-01-09 03:26:00,
2013-01-08 20:27:00,34.2,16.9,29.90,SW,225,3.6,3.6,49,0.00,,,0.00,WUHU216HW,2013-01-09 03:27:00,
2013-01-08 20:28:00,34.2,16.9,29.90,SW,225,5.4,5.4,49,0.00,,,0.00,WUHU216HW,2013-01-09 03:28:00,
2013-01-08 20:31:00,34.2,16.9,29.90,SSW,203,4.7,5.4,49,0.00,,,0.00,WUHU216HW,2013-01-09 03:31:00,
2013-01-08 20:32:00,34.0,16.7,29.90,SSW,203,3.1,5.4,49,0.00,,,0.00,WUHU216HW,2013-01-09 03:32:00,
2013-01-08 20:34:00,33.8,16.6,29.90,SSW,203,3.8,5.4,49,0.00,,,0.00,WUHU216HW,2013-01-09 03:34:00,
2013-01-08 20:36:00,33.8,16.6,29.90,SSW,203,0.4,5.4,49,0.00,,,0.00,WUHU216HW,2013-01-09 03:36:00,
2013-01-08 20:37:00,33.8,16.6,29.90,South,180,0.2,5.4,49,0.00,,,0.00,WUHU216HW,2013-01-09 03:37:00,
2013-01-08 20:39:00,33.7,16.5,29.90,South,180,0.2,4.9,49,0.00,,,0.00,WUHU216HW,2013-01-09 03:39:00,
2013-01-08 20:41:00,33.7,16.9,29.90,WSW,248,1.1,4.0,50,0.00,,,0.00,WUHU216HW,2013-01-09 03:41:00,
2013-01-08 20:43:00,33.5,16.7,29.90,WSW,248,0.7,4.0,50,0.00,,,0.00,WUHU216HW,2013-01-09 03:43:00,
2013-01-08 20:44:00,33.5,16.7,29.90,WSW,248,1.3,4.0,50,0.00,,,0.00,WUHU216HW,2013-01-09 03:44:00,
2013-01-08 20:46:00,33.5,16.7,29.90,South,180,0.4,1.6,50,0.00,,,0.00,WUHU216HW,2013-01-09 03:46:00,
2013-01-08 20:47:00,33.5,16.7,29.90,SSW,203,0.9,1.6,50,0.00,,,0.00,WUHU216HW,2013-01-09 03:47:00,
2013-01-08 20:48:00,33.5,16.7,29.90,SSW,203,0.9,1.6,50,0.00,,,0.00,WUHU216HW,2013-01-09 03:48:00,
2013-01-08 20:49:00,33.5,16.7,29.89,SSW,203,1.3,1.6,50,0.00,,,0.00,WUHU216HW,2013-01-09 03:49:00,
2013-01-08 20:51:00,33.3,16.7,29.89,SSE,158,0.4,1.6,50,0.00,,,0.00,WUHU216HW,2013-01-09 03:51:00,
2013-01-08 20:52:00,33.3,16.7,29.89,SSE,158,0.4,1.6,50,0.00,,,0.00,WUHU216HW,2013-01-09 03:52:00,
2013-01-08 20:53:00,33.3,16.7,29.89,SSE,158,0.4,1.6,50,0.00,,,0.00,WUHU216HW,2013-01-09 03:53:00,
2013-01-08 20:54:00,33.3,16.7,29.89,SSE,158,0.0,1.3,50,0.00,,,0.00,WUHU216HW,2013-01-09 03:54:00,
2013-01-08 20:56:00,33.1,16.9,29.89,SW,225,2.5,2.5,51,0.00,,,0.00,WUHU216HW,2013-01-09 03:56:00,
2013-01-08 20:57:00,33.1,16.9,29.89,SSW,203,1.8,2.5,51,0.00,,,0.00,WUHU216HW,2013-01-09 03:57:00,
2013-01-08 20:58:00,33.1,16.9,29.89,SSW,203,1.8,2.5,51,0.00,,,0.00,WUHU216HW,2013-01-09 03:58:00,
2013-01-08 20:59:00,33.1,16.9,29.89,SSW,203,0.9,2.5,51,0.00,,,0.00,WUHU216HW,2013-01-09 03:59:00,
2013-01-08 21:01:00,32.9,16.8,29.89,SW,225,1.1,2.5,51,0.00,,,0.00,WUHU216HW,2013-01-09 04:01:00,
2013-01-08 21:03:00,32.9,16.8,29.89,SW,225,0.7,2.5,51,0.00,,,0.00,WUHU216HW,2013-01-09 04:03:00,
2013-01-08 21:04:00,32.8,16.6,29.89,SSW,203,2.0,2.5,51,0.00,,,0.00,WUHU216HW,2013-01-09 04:04:00,
2013-01-08 21:07:00,32.8,16.6,29.89,SW,225,2.5,2.5,51,0.00,,,0.00,WUHU216HW,2013-01-09 04:07:00,
2013-01-08 21:08:00,32.8,16.6,29.89,SW,225,2.9,2.9,51,0.00,,,0.00,WUHU216HW,2013-01-09 04:08:00,
2013-01-08 21:10:00,32.8,16.6,29.89,SW,225,1.1,2.9,51,0.00,,,0.00,WUHU216HW,2013-01-09 04:10:00,
2013-01-08 21:12:00,32.6,16.4,29.89,SW,225,1.1,2.9,51,0.00,,,0.00,WUHU216HW,2013-01-09 04:12:00,
2013-01-08 21:13:00,32.6,16.4,29.89,SW,225,1.6,2.9,51,0.00,,,0.00,WUHU216HW,2013-01-09 04:13:00,
2013-01-08 21:15:00,32.4,16.2,29.89,SSW,203,1.8,2.9,51,0.00,,,0.00,WUHU216HW,2013-01-09 04:15:00,
2013-01-08 21:17:00,32.4,16.2,29.89,SSW,203,0.4,2.9,51,0.00,,,0.00,WUHU216HW,2013-01-09 04:17:00,
2013-01-08 21:19:00,32.2,16.1,29.89,SW,225,0.9,1.8,51,0.00,,,0.00,WUHU216HW,2013-01-09 04:19:00,
2013-01-08 21:20:00,32.2,16.1,29.89,SW,225,1.1,1.8,51,0.00,,,0.00,WUHU216HW,2013-01-09 04:20:00,
2013-01-08 21:22:00,32.2,16.5,29.89,SW,225,0.9,1.8,52,0.00,,,0.00,WUHU216HW,2013-01-09 04:22:00,
2013-01-08 21:24:00,32.0,16.4,29.89,SW,225,0.9,1.8,52,0.00,,,0.00,WUHU216HW,2013-01-09 04:24:00,
2013-01-08 21:25:00,32.0,16.4,29.89,SW,225,0.7,1.8,52,0.00,,,0.00,WUHU216HW,2013-01-09 04:25:00,
2013-01-08 21:27:00,32.0,16.4,29.89,SW,225,0.0,1.6,52,0.00,,,0.00,WUHU216HW,2013-01-09 04:27:00,
2013-01-08 21:29:00,32.0,16.4,29.89,SW,225,0.7,1.6,52,0.00,,,0.00,WUHU216HW,2013-01-09 04:29:00,
2013-01-08 21:30:00,32.2,16.5,29.89,SW,225,0.4,1.1,52,0.00,,,0.00,WUHU216HW,2013-01-09 04:30:00,
2013-01-08 21:32:00,32.2,16.5,29.89,SW,225,0.4,0.9,52,0.00,,,0.00,WUHU216HW,2013-01-09 04:32:00,
2013-01-08 21:34:00,32.2,16.9,29.89,SW,225,0.4,0.7,53,0.00,,,0.00,WUHU216HW,2013-01-09 04:34:00,
2013-01-08 21:35:00,32.2,16.9,29.89,SW,225,0.4,0.7,53,0.00,,,0.00,WUHU216HW,2013-01-09 04:35:00,
2013-01-08 21:37:00,32.4,17.1,29.89,WSW,248,0.2,0.7,53,0.00,,,0.00,WUHU216HW,2013-01-09 04:37:00,
2013-01-08 21:39:00,32.4,17.1,29.89,WSW,248,0.0,0.4,53,0.00,,,0.00,WUHU216HW,2013-01-09 04:39:00,
2013-01-08 21:40:00,32.4,17.1,29.89,WSW,248,0.0,0.4,53,0.00,,,0.00,WUHU216HW,2013-01-09 04:40:00,
2013-01-08 21:42:00,32.6,17.3,29.88,NNW,338,0.0,0.4,53,0.00,,,0.00,WUHU216HW,2013-01-09 04:42:00,
2013-01-08 21:44:00,32.6,17.3,29.89,NNW,338,0.2,0.4,53,0.00,,,0.00,WUHU216HW,2013-01-09 04:44:00,
2013-01-08 21:45:00,32.6,17.3,29.89,NNW,338,0.2,0.4,53,0.00,,,0.00,WUHU216HW,2013-01-09 04:45:00,
2013-01-08 21:47:00,32.6,17.3,29.89,NW,315,0.7,0.7,53,0.00,,,0.00,WUHU216HW,2013-01-09 04:47:00,
2013-01-08 21:49:00,32.8,17.5,29.89,WSW,248,0.4,0.7,53,0.00,,,0.00,WUHU216HW,2013-01-09 04:49:00,
2013-01-08 21:50:00,32.8,17.5,29.89,WSW,248,0.4,0.7,53,0.00,,,0.00,WUHU216HW,2013-01-09 04:50:00,
2013-01-08 21:52:00,32.8,17.5,29.89,NNW,338,0.2,0.7,53,0.00,,,0.00,WUHU216HW,2013-01-09 04:52:00,
2013-01-08 21:55:00,32.8,17.8,29.89,North,0,2.2,2.2,54,0.00,,,0.00,WUHU216HW,2013-01-09 04:55:00,
2013-01-08 21:56:00,32.8,17.8,29.89,NNW,338,0.7,2.2,54,0.00,,,0.00,WUHU216HW,2013-01-09 04:56:00,
2013-01-08 21:58:00,32.8,17.8,29.89,North,0,0.0,2.2,54,0.00,,,0.00,WUHU216HW,2013-01-09 04:58:00,
2013-01-08 22:00:00,32.8,17.8,29.88,NNE,23,0.2,2.2,54,0.00,,,0.00,WUHU216HW,2013-01-09 05:00:00,
2013-01-08 22:02:00,32.6,17.7,29.89,North,0,1.8,2.2,54,0.00,,,0.00,WUHU216HW,2013-01-09 05:02:00,
2013-01-08 22:05:00,32.4,17.6,29.89,SSW,203,1.1,1.8,54,0.00,,,0.00,WUHU216HW,2013-01-09 05:05:00,
2013-01-08 22:07:00,32.4,17.6,29.89,SW,225,0.4,1.8,54,0.00,,,0.00,WUHU216HW,2013-01-09 05:07:00,
2013-01-08 22:10:00,32.4,17.6,29.89,North,0,1.1,1.8,54,0.00,,,0.00,WUHU216HW,2013-01-09 05:10:00,
2013-01-08 22:12:00,32.2,17.4,29.89,SW,225,0.9,1.3,54,0.00,,,0.00,WUHU216HW,2013-01-09 05:12:00,
2013-01-08 22:15:00,32.2,17.4,29.89,SW,225,0.7,1.3,54,0.00,,,0.00,WUHU216HW,2013-01-09 05:15:00,
2013-01-08 22:16:00,32.2,17.4,29.89,SW,225,0.7,1.3,54,0.00,,,0.00,WUHU216HW,2013-01-09 05:16:00,
2013-01-08 22:17:00,32.0,17.6,29.89,NNW,338,0.4,1.3,55,0.00,,,0.00,WUHU216HW,2013-01-09 05:17:00,
2013-01-08 22:20:00,32.0,17.6,29.90,NNW,338,0.4,1.3,55,0.00,,,0.00,WUHU216HW,2013-01-09 05:20:00,
2013-01-08 22:21:00,32.0,17.6,29.90,NNW,338,0.4,1.3,55,0.00,,,0.00,WUHU216HW,2013-01-09 05:21:00,
2013-01-08 22:23:00,32.0,17.6,29.90,NNW,338,0.0,1.3,55,0.00,,,0.00,WUHU216HW,2013-01-09 05:23:00,
2013-01-08 22:25:00,32.0,17.2,29.90,North,0,0.0,0.4,54,0.00,,,0.00,WUHU216HW,2013-01-09 05:25:00,
2013-01-08 22:26:00,32.0,17.2,29.90,ENE,68,0.0,0.4,54,0.00,,,0.00,WUHU216HW,2013-01-09 05:26:00,
2013-01-08 22:28:00,32.0,17.2,29.90,ENE,68,0.0,0.4,54,0.00,,,0.00,WUHU216HW,2013-01-09 05:28:00,
2013-01-08 22:30:00,31.9,17.0,29.89,ENE,68,0.0,0.4,54,0.00,,,0.00,WUHU216HW,2013-01-09 05:30:00,
2013-01-08 22:31:00,31.9,17.0,29.89,ENE,68,0.0,0.4,54,0.00,,,0.00,WUHU216HW,2013-01-09 05:31:00,
2013-01-08 22:33:00,31.9,17.0,29.89,ENE,68,0.0,0.4,54,0.00,,,0.00,WUHU216HW,2013-01-09 05:33:00,
2013-01-08 22:35:00,31.9,17.0,29.89,ENE,68,0.0,0.0,54,0.00,,,0.00,WUHU216HW,2013-01-09 05:35:00,
2013-01-08 22:36:00,31.9,17.0,29.89,ENE,68,0.0,0.0,54,0.00,,,0.00,WUHU216HW,2013-01-09 05:36:00,
2013-01-08 22:38:00,31.9,17.0,29.89,SSW,203,0.9,0.9,54,0.00,,,0.00,WUHU216HW,2013-01-09 05:38:00,
2013-01-08 22:41:00,31.9,17.0,29.89,SW,225,1.3,1.3,54,0.00,,,0.00,WUHU216HW,2013-01-09 05:41:00,
2013-01-08 22:43:00,31.9,17.5,29.89,SW,225,0.9,1.3,55,0.00,,,0.00,WUHU216HW,2013-01-09 05:43:00,
2013-01-08 22:46:00,31.9,17.5,29.90,WSW,248,0.9,1.3,55,0.00,,,0.00,WUHU216HW,2013-01-09 05:46:00,
2013-01-08 22:47:00,31.9,17.5,29.90,West,270,0.7,1.3,55,0.00,,,0.00,WUHU216HW,2013-01-09 05:47:00,
2013-01-08 22:48:00,31.9,17.5,29.90,WSW,248,0.9,1.3,55,0.00,,,0.00,WUHU216HW,2013-01-09 05:48:00,
2013-01-08 22:51:00,31.9,17.5,29.90,West,270,0.4,1.3,55,0.00,,,0.00,WUHU216HW,2013-01-09 05:51:00,
2013-01-08 22:52:00,31.9,17.5,29.90,West,270,0.4,1.3,55,0.00,,,0.00,WUHU216HW,2013-01-09 05:52:00,
2013-01-08 22:53:00,31.9,17.5,29.90,West,270,0.9,1.3,55,0.00,,,0.00,WUHU216HW,2013-01-09 05:53:00,
2013-01-08 22:56:00,31.9,17.5,29.90,WSW,248,0.4,1.3,55,0.00,,,0.00,WUHU216HW,2013-01-09 05:56:00,
2013-01-08 22:57:00,31.7,17.3,29.90,WSW,248,0.4,1.3,55,0.00,,,0.00,WUHU216HW,2013-01-09 05:57:00,
2013-01-08 22:58:00,31.7,17.3,29.90,WSW,248,0.7,1.3,55,0.00,,,0.00,WUHU216HW,2013-01-09 05:58:00,
2013-01-08 23:01:00,31.7,17.3,29.90,South,180,0.7,1.1,55,0.00,,,0.00,WUHU216HW,2013-01-09 06:01:00,
2013-01-08 23:02:00,31.7,17.7,29.90,South,180,0.4,1.1,56,0.00,,,0.00,WUHU216HW,2013-01-09 06:02:00,
2013-01-08 23:03:00,31.7,17.7,29.90,SSE,158,0.4,1.1,56,0.00,,,0.00,WUHU216HW,2013-01-09 06:03:00,
2013-01-08 23:06:00,31.7,17.7,29.90,South,180,0.7,0.7,56,0.00,,,0.00,WUHU216HW,2013-01-09 06:06:00,
2013-01-08 23:07:00,31.7,17.7,29.90,South,180,0.7,0.7,56,0.00,,,0.00,WUHU216HW,2013-01-09 06:07:00,
2013-01-08 23:08:00,31.5,17.6,29.90,SE,135,0.4,0.7,56,0.00,,,0.00,WUHU216HW,2013-01-09 06:08:00,
2013-01-08 23:11:00,31.5,17.6,29.90,SSW,203,1.1,1.1,56,0.00,,,0.00,WUHU216HW,2013-01-09 06:11:00,
2013-01-08 23:12:00,31.5,17.6,29.90,SSW,203,1.1,1.1,56,0.00,,,0.00,WUHU216HW,2013-01-09 06:12:00,
2013-01-08 23:13:00,31.5,17.6,29.89,SW,225,1.1,1.1,56,0.00,,,0.00,WUHU216HW,2013-01-09 06:13:00,
2013-01-08 23:16:00,31.5,17.6,29.89,SSW,203,0.7,1.1,56,0.00,,,0.00,WUHU216HW,2013-01-09 06:16:00,
2013-01-08 23:17:00,31.5,17.6,29.89,SSE,158,0.4,1.1,56,0.00,,,0.00,WUHU216HW,2013-01-09 06:17:00,
2013-01-08 23:18:00,31.5,17.6,29.89,SSW,203,1.8,1.8,56,0.00,,,0.00,WUHU216HW,2013-01-09 06:18:00,
2013-01-08 23:19:00,31.5,17.6,29.89,SSE,158,0.4,1.8,56,0.00,,,0.00,WUHU216HW,2013-01-09 06:19:00,
2013-01-08 23:21:00,31.5,17.6,29.89,SSW,203,0.4,1.8,56,0.00,,,0.00,WUHU216HW,2013-01-09 06:21:00,
2013-01-08 23:22:00,31.5,17.6,29.89,SSW,203,1.6,1.8,56,0.00,,,0.00,WUHU216HW,2013-01-09 06:22:00,
2013-01-08 23:23:00,31.5,17.6,29.89,SSW,203,0.4,1.8,56,0.00,,,0.00,WUHU216HW,2013-01-09 06:23:00,
2013-01-08 23:24:00,31.5,17.6,29.89,SSW,203,1.1,1.8,56,0.00,,,0.00,WUHU216HW,2013-01-09 06:24:00,
2013-01-08 23:26:00,31.5,17.6,29.89,SW,225,1.3,2.2,56,0.00,,,0.00,WUHU216HW,2013-01-09 06:26:00,
2013-01-08 23:27:00,31.5,17.6,29.89,SSW,203,1.8,2.2,56,0.00,,,0.00,WUHU216HW,2013-01-09 06:27:00,
2013-01-08 23:28:00,31.5,17.6,29.89,SW,225,1.1,2.2,56,0.00,,,0.00,WUHU216HW,2013-01-09 06:28:00,
2013-01-08 23:29:00,31.3,17.4,29.89,SSW,203,1.8,2.2,56,0.00,,,0.00,WUHU216HW,2013-01-09 06:29:00,
2013-01-08 23:31:00,31.3,17.4,29.89,SSW,203,1.3,2.2,56,0.00,,,0.00,WUHU216HW,2013-01-09 06:31:00,
2013-01-08 23:32:00,31.3,17.4,29.89,SW,225,0.4,2.2,56,0.00,,,0.00,WUHU216HW,2013-01-09 06:32:00,
2013-01-08 23:34:00,31.3,17.4,29.89,South,180,0.9,2.2,56,0.00,,,0.00,WUHU216HW,2013-01-09 06:34:00,
2013-01-08 23:36:00,31.3,17.4,29.89,SW,225,1.1,1.8,56,0.00,,,0.00,WUHU216HW,2013-01-09 06:36:00,
2013-01-08 23:38:00,31.1,17.2,29.89,SW,225,0.9,1.8,56,0.00,,,0.00,WUHU216HW,2013-01-09 06:38:00,
2013-01-08 23:39:00,31.1,17.2,29.89,SSW,203,1.1,1.8,56,0.00,,,0.00,WUHU216HW,2013-01-09 06:39:00,
2013-01-08 23:41:00,31.0,17.0,29.89,SSW,203,0.7,1.1,56,0.00,,,0.00,WUHU216HW,2013-01-09 06:41:00,
2013-01-08 23:42:00,31.0,17.0,29.89,SSW,203,0.7,1.1,56,0.00,,,0.00,WUHU216HW,2013-01-09 06:42:00,
2013-01-08 23:44:00,31.0,17.0,29.88,SSW,203,0.0,1.1,56,0.00,,,0.00,WUHU216HW,2013-01-09 06:44:00,
2013-01-08 23:45:00,30.8,16.8,29.89,SW,225,0.7,1.1,56,0.00,,,0.00,WUHU216HW,2013-01-09 06:45:00,
2013-01-08 23:46:00,30.8,16.8,29.88,SW,225,1.1,1.1,56,0.00,,,0.00,WUHU216HW,2013-01-09 06:46:00,
2013-01-08 23:48:00,30.6,16.7,29.89,SW,225,1.6,1.6,56,0.00,,,0.00,WUHU216HW,2013-01-09 06:48:00,
2013-01-08 23:49:00,30.6,16.7,29.88,SSW,203,1.8,1.8,56,0.00,,,0.00,WUHU216HW,2013-01-09 06:49:00,
2013-01-08 23:50:00,30.6,16.7,29.89,SW,225,1.1,1.8,56,0.00,,,0.00,WUHU216HW,2013-01-09 06:50:00,
2013-01-08 23:51:00,30.4,16.6,29.89,SW,225,2.5,2.5,56,0.00,,,0.00,WUHU216HW,2013-01-09 06:51:00,
2013-01-08 23:53:00,30.4,16.6,29.89,SSW,203,1.8,2.5,56,0.00,,,0.00,WUHU216HW,2013-01-09 06:53:00,
2013-01-08 23:54:00,30.2,16.4,29.88,SSW,203,1.6,2.5,56,0.00,,,0.00,WUHU216HW,2013-01-09 06:54:00,
2013-01-08 23:55:00,30.2,16.7,29.88,SW,225,2.5,2.5,57,0.00,,,0.00,WUHU216HW,2013-01-09 06:55:00,
2013-01-08 23:56:00,30.2,16.7,29.88,SW,225,2.5,2.5,57,0.00,,,0.00,WUHU216HW,2013-01-09 06:56:00,
2013-01-08 23:58:00,30.1,16.6,29.88,SW,225,1.6,2.5,57,0.00,,,0.00,WUHU216HW,2013-01-09 06:58:00,
2013-01-08 23:59:00,30.1,16.6,29.88,SSW,203,1.1,2.5,57,0.00,,,0.00,WUHU216HW,2013-01-09 06:59:00,